<?xml version="1.0" encoding="UTF-8" standalone="no" ?>
<gpx xmlns="http://www.topografix.com/GPX/1/1" xmlns:xsi="http://www.w3.org/2001/XMLSchema-instance" xsi:schemaLocation="http://www.topografix.com/GPX/1/1 http://www.topografix.com/GPX/1/1/gpx.xsd" version="1.1" creator="VisuGPX - https://www.visugpx.com">
  <metadata>
    <name>Cognin les Gorges - Gorgonnet descente par les gorges du Nan</name>
  </metadata>
  <trk>
    <name><![CDATA[Cognin les Gorges - Gorgonnet]]></name>
    <trkseg>
      <trkpt lat="45.17071" lon="5.41253">
        <ele>275.22</ele>
        <time>2020-06-11T13:59:00.000Z</time>
        <extensions>
          <visugpx:TrkExtension xmlns:visugpx="https://www.visugpx.com/editgpx/">
            <visugpx:node>1</visugpx:node>
            </visugpx:TrkExtension>
        </extensions>
      </trkpt>
      <trkpt lat="45.17066" lon="5.41234">
        <ele>275</ele>
        <time>2020-06-11T13:58:37.000Z</time>
      </trkpt>
      <trkpt lat="45.17053" lon="5.41222">
        <ele>275.19</ele>
        <time>2020-06-11T13:57:59.000Z</time>
      </trkpt>
      <trkpt lat="45.17034" lon="5.412">
        <ele>275.34</ele>
        <time>2020-06-11T13:57:36.000Z</time>
      </trkpt>
      <trkpt lat="45.17018" lon="5.41205">
        <ele>275.46</ele>
        <time>2020-06-11T13:57:21.000Z</time>
      </trkpt>
      <trkpt lat="45.16999" lon="5.41224">
        <ele>275.29</ele>
        <time>2020-06-11T13:57:01.000Z</time>
      </trkpt>
      <trkpt lat="45.16985" lon="5.41237">
        <ele>274.73</ele>
        <time>2020-06-11T13:56:46.000Z</time>
      </trkpt>
      <trkpt lat="45.16974" lon="5.41253">
        <ele>274.58</ele>
        <time>2020-06-11T13:56:30.000Z</time>
      </trkpt>
      <trkpt lat="45.16958" lon="5.41288">
        <ele>276.3</ele>
        <time>2020-06-11T13:56:10.000Z</time>
      </trkpt>
      <trkpt lat="45.16949" lon="5.41307">
        <ele>278.18</ele>
        <time>2020-06-11T13:55:53.000Z</time>
      </trkpt>
      <trkpt lat="45.16942" lon="5.41332">
        <ele>281.11</ele>
        <time>2020-06-11T13:55:38.000Z</time>
      </trkpt>
      <trkpt lat="45.16935" lon="5.41364">
        <ele>285.15</ele>
        <time>2020-06-11T13:55:18.000Z</time>
      </trkpt>
      <trkpt lat="45.16931" lon="5.41387">
        <ele>288.05</ele>
        <time>2020-06-11T13:55:03.000Z</time>
      </trkpt>
      <trkpt lat="45.16924" lon="5.41407">
        <ele>290.25</ele>
        <time>2020-06-11T13:54:47.000Z</time>
      </trkpt>
      <trkpt lat="45.16913" lon="5.41437">
        <ele>291.95</ele>
        <time>2020-06-11T13:54:27.000Z</time>
      </trkpt>
      <trkpt lat="45.16925" lon="5.41454">
        <ele>292.17</ele>
        <time>2020-06-11T13:54:12.000Z</time>
      </trkpt>
      <trkpt lat="45.1694" lon="5.41474">
        <ele>290.91</ele>
        <time>2020-06-11T13:53:50.000Z</time>
      </trkpt>
      <trkpt lat="45.16947" lon="5.41495">
        <ele>290.78</ele>
        <time>2020-06-11T13:53:27.000Z</time>
      </trkpt>
      <trkpt lat="45.16955" lon="5.41517">
        <ele>290.89</ele>
        <time>2020-06-11T13:53:12.000Z</time>
      </trkpt>
      <trkpt lat="45.16968" lon="5.41547">
        <ele>288.36</ele>
        <time>2020-06-11T13:52:52.000Z</time>
      </trkpt>
      <trkpt lat="45.1698" lon="5.4157">
        <ele>284.96</ele>
        <time>2020-06-11T13:52:37.000Z</time>
      </trkpt>
      <trkpt lat="45.16994" lon="5.41586">
        <ele>281.39</ele>
        <time>2020-06-11T13:52:22.000Z</time>
      </trkpt>
      <trkpt lat="45.17013" lon="5.4161">
        <ele>282.36</ele>
        <time>2020-06-11T13:52:02.000Z</time>
      </trkpt>
      <trkpt lat="45.17025" lon="5.41627">
        <ele>284.79</ele>
        <time>2020-06-11T13:51:47.000Z</time>
      </trkpt>
      <trkpt lat="45.17039" lon="5.41653">
        <ele>288.45</ele>
        <time>2020-06-11T13:51:22.000Z</time>
      </trkpt>
      <trkpt lat="45.17051" lon="5.41669">
        <ele>288.16</ele>
        <time>2020-06-11T13:51:07.000Z</time>
      </trkpt>
      <trkpt lat="45.17064" lon="5.41687">
        <ele>287.68</ele>
        <time>2020-06-11T13:50:52.000Z</time>
      </trkpt>
      <trkpt lat="45.17083" lon="5.4171">
        <ele>284.9</ele>
        <time>2020-06-11T13:50:32.000Z</time>
      </trkpt>
      <trkpt lat="45.17098" lon="5.41726">
        <ele>283.59</ele>
        <time>2020-06-11T13:50:17.000Z</time>
      </trkpt>
      <trkpt lat="45.17112" lon="5.41746">
        <ele>284.57</ele>
        <time>2020-06-11T13:50:02.000Z</time>
      </trkpt>
      <trkpt lat="45.1713" lon="5.41773">
        <ele>286.22</ele>
        <time>2020-06-11T13:49:42.000Z</time>
      </trkpt>
      <trkpt lat="45.17144" lon="5.41788">
        <ele>284.37</ele>
        <time>2020-06-11T13:49:27.000Z</time>
      </trkpt>
      <trkpt lat="45.17161" lon="5.41805">
        <ele>280.28</ele>
        <time>2020-06-11T13:49:12.000Z</time>
      </trkpt>
      <trkpt lat="45.17177" lon="5.41831">
        <ele>278.58</ele>
        <time>2020-06-11T13:48:52.000Z</time>
      </trkpt>
      <trkpt lat="45.17195" lon="5.41851">
        <ele>280.17</ele>
        <time>2020-06-11T13:48:37.000Z</time>
      </trkpt>
      <trkpt lat="45.17213" lon="5.41882">
        <ele>284.32</ele>
        <time>2020-06-11T13:48:17.000Z</time>
      </trkpt>
      <trkpt lat="45.17221" lon="5.41902">
        <ele>285.87</ele>
        <time>2020-06-11T13:48:02.000Z</time>
      </trkpt>
      <trkpt lat="45.17234" lon="5.41921">
        <ele>284.03</ele>
        <time>2020-06-11T13:47:47.000Z</time>
      </trkpt>
      <trkpt lat="45.1725" lon="5.41944">
        <ele>281.66</ele>
        <time>2020-06-11T13:47:26.000Z</time>
      </trkpt>
      <trkpt lat="45.17263" lon="5.41964">
        <ele>281.09</ele>
        <time>2020-06-11T13:47:11.000Z</time>
      </trkpt>
      <trkpt lat="45.17275" lon="5.41978">
        <ele>280.32</ele>
        <time>2020-06-11T13:46:56.000Z</time>
      </trkpt>
      <trkpt lat="45.17295" lon="5.41991">
        <ele>278.14</ele>
        <time>2020-06-11T13:45:32.000Z</time>
      </trkpt>
      <trkpt lat="45.17294" lon="5.41994">
        <ele>278.58</ele>
        <time>2020-06-11T13:44:53.000Z</time>
      </trkpt>
      <trkpt lat="45.17314" lon="5.42026">
        <ele>276.62</ele>
        <time>2020-06-11T13:44:33.000Z</time>
      </trkpt>
      <trkpt lat="45.1732" lon="5.42051">
        <ele>276.03</ele>
        <time>2020-06-11T13:44:11.000Z</time>
      </trkpt>
      <trkpt lat="45.17327" lon="5.42071">
        <ele>274.94</ele>
        <time>2020-06-11T13:43:54.000Z</time>
      </trkpt>
      <trkpt lat="45.17343" lon="5.42096">
        <ele>284.8</ele>
      </trkpt>
      <trkpt lat="45.1735" lon="5.42117">
        <ele>285</ele>
      </trkpt>
      <trkpt lat="45.17356" lon="5.42132">
        <ele>285.8</ele>
      </trkpt>
      <trkpt lat="45.17362" lon="5.42149">
        <ele>286.5</ele>
      </trkpt>
      <trkpt lat="45.1737" lon="5.42164">
        <ele>285.6</ele>
      </trkpt>
      <trkpt lat="45.17382" lon="5.42175">
        <ele>287.8</ele>
      </trkpt>
      <trkpt lat="45.17384" lon="5.42183">
        <ele>275.03</ele>
        <time>2020-06-11T13:41:03.000Z</time>
      </trkpt>
      <trkpt lat="45.17382" lon="5.42191">
        <ele>276.01</ele>
        <time>2020-06-11T13:40:41.000Z</time>
      </trkpt>
      <trkpt lat="45.1739" lon="5.42212">
        <ele>276.36</ele>
        <time>2020-06-11T13:40:23.000Z</time>
      </trkpt>
      <trkpt lat="45.17389" lon="5.42245">
        <ele>279.47</ele>
        <time>2020-06-11T13:40:03.000Z</time>
      </trkpt>
      <trkpt lat="45.17394" lon="5.42268">
        <ele>280.13</ele>
        <time>2020-06-11T13:39:48.000Z</time>
      </trkpt>
      <trkpt lat="45.17401" lon="5.42288">
        <ele>279.81</ele>
        <time>2020-06-11T13:39:32.000Z</time>
      </trkpt>
      <trkpt lat="45.17415" lon="5.42309">
        <ele>277.39</ele>
        <time>2020-06-11T13:39:07.000Z</time>
      </trkpt>
      <trkpt lat="45.17425" lon="5.42325">
        <ele>276.1</ele>
        <time>2020-06-11T13:38:47.000Z</time>
      </trkpt>
      <trkpt lat="45.17428" lon="5.42359">
        <ele>279.04</ele>
        <time>2020-06-11T13:38:27.000Z</time>
      </trkpt>
      <trkpt lat="45.17439" lon="5.42376">
        <ele>278.09</ele>
        <time>2020-06-11T13:38:12.000Z</time>
      </trkpt>
      <trkpt lat="45.17456" lon="5.42387">
        <ele>275.52</ele>
        <time>2020-06-11T13:37:57.000Z</time>
      </trkpt>
      <trkpt lat="45.17467" lon="5.42413">
        <ele>275.71</ele>
        <time>2020-06-11T13:37:35.000Z</time>
      </trkpt>
      <trkpt lat="45.17478" lon="5.42429">
        <ele>275.39</ele>
        <time>2020-06-11T13:37:19.000Z</time>
      </trkpt>
      <trkpt lat="45.17496" lon="5.42436">
        <ele>272.67</ele>
        <time>2020-06-11T13:37:04.000Z</time>
      </trkpt>
      <trkpt lat="45.17518" lon="5.42454">
        <ele>271.72</ele>
        <time>2020-06-11T13:36:44.000Z</time>
      </trkpt>
      <trkpt lat="45.17531" lon="5.42472">
        <ele>272.61</ele>
        <time>2020-06-11T13:36:29.000Z</time>
      </trkpt>
      <trkpt lat="45.17547" lon="5.42499">
        <ele>274.55</ele>
        <time>2020-06-11T13:36:09.000Z</time>
      </trkpt>
      <trkpt lat="45.17551" lon="5.42524">
        <ele>277.73</ele>
        <time>2020-06-11T13:35:53.000Z</time>
      </trkpt>
      <trkpt lat="45.17558" lon="5.42545">
        <ele>280.88</ele>
        <time>2020-06-11T13:35:36.000Z</time>
      </trkpt>
      <trkpt lat="45.17562" lon="5.42574">
        <ele>286.16</ele>
        <time>2020-06-11T13:35:05.000Z</time>
      </trkpt>
      <trkpt lat="45.17567" lon="5.42593">
        <ele>289.19</ele>
        <time>2020-06-11T13:34:20.000Z</time>
      </trkpt>
      <trkpt lat="45.1758" lon="5.42588">
        <ele>286.21</ele>
        <time>2020-06-11T13:34:03.000Z</time>
      </trkpt>
      <trkpt lat="45.17602" lon="5.42582">
        <ele>281.59</ele>
        <time>2020-06-11T13:33:43.000Z</time>
      </trkpt>
      <trkpt lat="45.17615" lon="5.42569">
        <ele>277.8</ele>
        <time>2020-06-11T13:33:23.000Z</time>
      </trkpt>
      <trkpt lat="45.17657" lon="5.42587">
        <ele>273.24</ele>
        <time>2020-06-11T13:27:44.000Z</time>
      </trkpt>
      <trkpt lat="45.17672" lon="5.42591">
        <ele>271.91</ele>
        <time>2020-06-11T13:27:28.000Z</time>
      </trkpt>
      <trkpt lat="45.17689" lon="5.42594">
        <ele>270.93</ele>
        <time>2020-06-11T13:27:12.000Z</time>
      </trkpt>
      <trkpt lat="45.17706" lon="5.42577">
        <ele>270.18</ele>
        <time>2020-06-11T13:26:52.000Z</time>
      </trkpt>
      <trkpt lat="45.17719" lon="5.42564">
        <ele>270.07</ele>
        <time>2020-06-11T13:26:36.000Z</time>
      </trkpt>
      <trkpt lat="45.17736" lon="5.42551">
        <ele>270.11</ele>
        <time>2020-06-11T13:26:21.000Z</time>
      </trkpt>
      <trkpt lat="45.17758" lon="5.42533">
        <ele>270.01</ele>
        <time>2020-06-11T13:26:01.000Z</time>
      </trkpt>
      <trkpt lat="45.17775" lon="5.42523">
        <ele>270</ele>
        <time>2020-06-11T13:25:45.000Z</time>
      </trkpt>
      <trkpt lat="45.17794" lon="5.42526">
        <ele>269.97</ele>
        <time>2020-06-11T13:25:30.000Z</time>
      </trkpt>
      <trkpt lat="45.17819" lon="5.42539">
        <ele>269.7</ele>
        <time>2020-06-11T13:25:10.000Z</time>
      </trkpt>
      <trkpt lat="45.17838" lon="5.42554">
        <ele>269.26</ele>
        <time>2020-06-11T13:24:55.000Z</time>
      </trkpt>
      <trkpt lat="45.17867" lon="5.42573">
        <ele>268.63</ele>
        <time>2020-06-11T13:24:35.000Z</time>
      </trkpt>
      <trkpt lat="45.17883" lon="5.42575">
        <ele>268.4</ele>
        <time>2020-06-11T13:24:18.000Z</time>
      </trkpt>
      <trkpt lat="45.179" lon="5.42581">
        <ele>268.19</ele>
        <time>2020-06-11T13:24:03.000Z</time>
      </trkpt>
      <trkpt lat="45.17924" lon="5.42586">
        <ele>267.94</ele>
        <time>2020-06-11T13:23:43.000Z</time>
      </trkpt>
      <trkpt lat="45.17933" lon="5.42604">
        <ele>268.03</ele>
        <time>2020-06-11T13:23:27.000Z</time>
      </trkpt>
      <trkpt lat="45.17948" lon="5.42628">
        <ele>268.08</ele>
        <time>2020-06-11T13:23:12.000Z</time>
      </trkpt>
      <trkpt lat="45.17962" lon="5.42661">
        <ele>267.99</ele>
        <time>2020-06-11T13:22:52.000Z</time>
      </trkpt>
      <trkpt lat="45.17973" lon="5.42682">
        <ele>267.83</ele>
        <time>2020-06-11T13:22:37.000Z</time>
      </trkpt>
      <trkpt lat="45.17996" lon="5.42705">
        <ele>267.54</ele>
        <time>2020-06-11T13:22:17.000Z</time>
      </trkpt>
      <trkpt lat="45.1801" lon="5.42717">
        <ele>267.43</ele>
        <time>2020-06-11T13:22:02.000Z</time>
      </trkpt>
      <trkpt lat="45.18029" lon="5.42734">
        <ele>267.23</ele>
        <time>2020-06-11T13:21:47.000Z</time>
      </trkpt>
      <trkpt lat="45.18054" lon="5.42751">
        <ele>266.75</ele>
        <time>2020-06-11T13:21:26.000Z</time>
      </trkpt>
      <trkpt lat="45.18076" lon="5.42763">
        <ele>266.23</ele>
        <time>2020-06-11T13:21:11.000Z</time>
      </trkpt>
      <trkpt lat="45.18089" lon="5.42777">
        <ele>265.91</ele>
        <time>2020-06-11T13:20:56.000Z</time>
      </trkpt>
      <trkpt lat="45.18115" lon="5.42791">
        <ele>265.41</ele>
        <time>2020-06-11T13:20:36.000Z</time>
      </trkpt>
      <trkpt lat="45.18132" lon="5.42788">
        <ele>265.12</ele>
        <time>2020-06-11T13:20:21.000Z</time>
      </trkpt>
      <trkpt lat="45.18151" lon="5.42785">
        <ele>264.74</ele>
        <time>2020-06-11T13:20:06.000Z</time>
      </trkpt>
      <trkpt lat="45.18178" lon="5.42778">
        <ele>264.2</ele>
        <time>2020-06-11T13:19:46.000Z</time>
      </trkpt>
      <trkpt lat="45.18197" lon="5.42773">
        <ele>264.28</ele>
        <time>2020-06-11T13:19:31.000Z</time>
      </trkpt>
      <trkpt lat="45.18221" lon="5.42764">
        <ele>264.23</ele>
        <time>2020-06-11T13:19:11.000Z</time>
      </trkpt>
      <trkpt lat="45.18237" lon="5.42756">
        <ele>263.43</ele>
        <time>2020-06-11T13:18:56.000Z</time>
      </trkpt>
      <trkpt lat="45.18256" lon="5.42753">
        <ele>261</ele>
        <time>2020-06-11T13:18:41.000Z</time>
      </trkpt>
      <trkpt lat="45.18283" lon="5.42751">
        <ele>253.87</ele>
        <time>2020-06-11T13:18:21.000Z</time>
      </trkpt>
      <trkpt lat="45.183" lon="5.42756">
        <ele>248.94</ele>
        <time>2020-06-11T13:17:51.000Z</time>
      </trkpt>
      <trkpt lat="45.18308" lon="5.42777">
        <ele>249.08</ele>
        <time>2020-06-11T13:17:34.000Z</time>
      </trkpt>
      <trkpt lat="45.18319" lon="5.42806">
        <ele>250.84</ele>
        <time>2020-06-11T13:17:09.000Z</time>
      </trkpt>
      <trkpt lat="45.18325" lon="5.42827">
        <ele>252.73</ele>
        <time>2020-06-11T13:16:52.000Z</time>
      </trkpt>
      <trkpt lat="45.18335" lon="5.4285">
        <ele>253.35</ele>
        <time>2020-06-11T13:16:30.000Z</time>
      </trkpt>
      <trkpt lat="45.18341" lon="5.4287">
        <ele>253.8</ele>
        <time>2020-06-11T13:16:14.000Z</time>
      </trkpt>
      <trkpt lat="45.18349" lon="5.4289">
        <ele>253.06</ele>
        <time>2020-06-11T13:15:58.000Z</time>
      </trkpt>
      <trkpt lat="45.18357" lon="5.42916">
        <ele>251.99</ele>
        <time>2020-06-11T13:15:31.000Z</time>
      </trkpt>
      <trkpt lat="45.18366" lon="5.42934">
        <ele>249.63</ele>
        <time>2020-06-11T13:15:15.000Z</time>
      </trkpt>
      <trkpt lat="45.18377" lon="5.42949">
        <ele>246.06</ele>
        <time>2020-06-11T13:14:58.000Z</time>
      </trkpt>
      <trkpt lat="45.1839" lon="5.42971">
        <ele>241.72</ele>
        <time>2020-06-11T13:14:37.000Z</time>
      </trkpt>
      <trkpt lat="45.18404" lon="5.42985">
        <ele>237.5</ele>
        <time>2020-06-11T13:14:20.000Z</time>
      </trkpt>
      <trkpt lat="45.18416" lon="5.43001">
        <ele>235.18</ele>
        <time>2020-06-11T13:14:04.000Z</time>
      </trkpt>
      <trkpt lat="45.18435" lon="5.43002">
        <ele>233.27</ele>
        <time>2020-06-11T13:13:39.000Z</time>
      </trkpt>
      <trkpt lat="45.18451" lon="5.42992">
        <ele>233.11</ele>
        <time>2020-06-11T13:13:23.000Z</time>
      </trkpt>
      <trkpt lat="45.18477" lon="5.4298">
        <ele>234.26</ele>
        <time>2020-06-11T13:13:03.000Z</time>
      </trkpt>
      <trkpt lat="45.18498" lon="5.4297">
        <ele>234.99</ele>
        <time>2020-06-11T13:12:48.000Z</time>
      </trkpt>
      <trkpt lat="45.18516" lon="5.42962">
        <ele>235.01</ele>
        <time>2020-06-11T13:12:33.000Z</time>
      </trkpt>
      <trkpt lat="45.18542" lon="5.42947">
        <ele>235.01</ele>
        <time>2020-06-11T13:12:13.000Z</time>
      </trkpt>
      <trkpt lat="45.18561" lon="5.42934">
        <ele>235</ele>
        <time>2020-06-11T13:11:58.000Z</time>
      </trkpt>
      <trkpt lat="45.18573" lon="5.42917">
        <ele>235</ele>
        <time>2020-06-11T13:11:43.000Z</time>
      </trkpt>
      <trkpt lat="45.18587" lon="5.42894">
        <ele>235</ele>
        <time>2020-06-11T13:11:23.000Z</time>
      </trkpt>
      <trkpt lat="45.18597" lon="5.42877">
        <ele>235</ele>
        <time>2020-06-11T13:11:08.000Z</time>
      </trkpt>
      <trkpt lat="45.18617" lon="5.4288">
        <ele>235</ele>
        <time>2020-06-11T13:10:45.000Z</time>
      </trkpt>
      <trkpt lat="45.18635" lon="5.429">
        <ele>235</ele>
        <time>2020-06-11T13:10:30.000Z</time>
      </trkpt>
      <trkpt lat="45.18653" lon="5.4292">
        <ele>235</ele>
        <time>2020-06-11T13:10:15.000Z</time>
      </trkpt>
      <trkpt lat="45.1868" lon="5.42947">
        <ele>235</ele>
        <time>2020-06-11T13:09:55.000Z</time>
      </trkpt>
      <trkpt lat="45.18699" lon="5.42967">
        <ele>235</ele>
        <time>2020-06-11T13:09:40.000Z</time>
      </trkpt>
      <trkpt lat="45.1871" lon="5.42985">
        <ele>235</ele>
        <time>2020-06-11T13:09:02.000Z</time>
      </trkpt>
      <trkpt lat="45.18712" lon="5.43005">
        <ele>235</ele>
        <time>2020-06-11T13:08:34.000Z</time>
      </trkpt>
      <trkpt lat="45.18725" lon="5.43029">
        <ele>235</ele>
        <time>2020-06-11T13:08:19.000Z</time>
      </trkpt>
      <trkpt lat="45.18742" lon="5.4305">
        <ele>235</ele>
        <time>2020-06-11T13:07:58.000Z</time>
      </trkpt>
      <trkpt lat="45.18757" lon="5.4307">
        <ele>235</ele>
        <time>2020-06-11T13:07:43.000Z</time>
      </trkpt>
      <trkpt lat="45.18772" lon="5.43079">
        <ele>235</ele>
        <time>2020-06-11T13:07:26.000Z</time>
      </trkpt>
      <trkpt lat="45.18792" lon="5.4307">
        <ele>235</ele>
        <time>2020-06-11T13:07:05.000Z</time>
      </trkpt>
      <trkpt lat="45.18808" lon="5.43059">
        <ele>235</ele>
        <time>2020-06-11T13:06:50.000Z</time>
      </trkpt>
      <trkpt lat="45.18829" lon="5.43057">
        <ele>235</ele>
        <time>2020-06-11T13:06:35.000Z</time>
      </trkpt>
      <trkpt lat="45.18852" lon="5.43056">
        <ele>234.99</ele>
        <time>2020-06-11T13:06:15.000Z</time>
      </trkpt>
      <trkpt lat="45.1887" lon="5.43057">
        <ele>234.98</ele>
        <time>2020-06-11T13:06:00.000Z</time>
      </trkpt>
      <trkpt lat="45.18891" lon="5.4305">
        <ele>234.98</ele>
        <time>2020-06-11T13:05:45.000Z</time>
      </trkpt>
      <trkpt lat="45.18912" lon="5.4303">
        <ele>235</ele>
        <time>2020-06-11T13:05:25.000Z</time>
      </trkpt>
      <trkpt lat="45.18927" lon="5.43013">
        <ele>235.01</ele>
        <time>2020-06-11T13:05:10.000Z</time>
      </trkpt>
      <trkpt lat="45.18943" lon="5.42986">
        <ele>234.98</ele>
        <time>2020-06-11T13:04:50.000Z</time>
      </trkpt>
      <trkpt lat="45.18956" lon="5.4297">
        <ele>234.97</ele>
        <time>2020-06-11T13:04:35.000Z</time>
      </trkpt>
      <trkpt lat="45.18972" lon="5.42956">
        <ele>234.96</ele>
        <time>2020-06-11T13:04:20.000Z</time>
      </trkpt>
      <trkpt lat="45.18994" lon="5.42943">
        <ele>234.97</ele>
        <time>2020-06-11T13:04:00.000Z</time>
      </trkpt>
      <trkpt lat="45.19007" lon="5.42931">
        <ele>234.99</ele>
        <time>2020-06-11T13:03:44.000Z</time>
      </trkpt>
      <trkpt lat="45.19021" lon="5.42918">
        <ele>235.05</ele>
        <time>2020-06-11T13:03:29.000Z</time>
      </trkpt>
      <trkpt lat="45.19039" lon="5.429">
        <ele>235.15</ele>
        <time>2020-06-11T13:03:08.000Z</time>
      </trkpt>
      <trkpt lat="45.19052" lon="5.42888">
        <ele>235.23</ele>
        <time>2020-06-11T13:02:53.000Z</time>
      </trkpt>
      <trkpt lat="45.19068" lon="5.42869">
        <ele>235.29</ele>
        <time>2020-06-11T13:02:30.000Z</time>
      </trkpt>
      <trkpt lat="45.19081" lon="5.42853">
        <ele>235.17</ele>
        <time>2020-06-11T13:02:15.000Z</time>
      </trkpt>
      <trkpt lat="45.19092" lon="5.42833">
        <ele>234.8</ele>
        <time>2020-06-11T13:02:00.000Z</time>
      </trkpt>
      <trkpt lat="45.19109" lon="5.42837">
        <ele>234.31</ele>
        <time>2020-06-11T13:01:38.000Z</time>
      </trkpt>
      <trkpt lat="45.19123" lon="5.42853">
        <ele>233.92</ele>
        <time>2020-06-11T13:01:23.000Z</time>
      </trkpt>
      <trkpt lat="45.19131" lon="5.42873">
        <ele>233.7</ele>
        <time>2020-06-11T13:01:08.000Z</time>
      </trkpt>
      <trkpt lat="45.19144" lon="5.429">
        <ele>233.41</ele>
        <time>2020-06-11T13:00:48.000Z</time>
      </trkpt>
      <trkpt lat="45.19154" lon="5.42926">
        <ele>233.47</ele>
        <time>2020-06-11T13:00:33.000Z</time>
      </trkpt>
      <trkpt lat="45.19168" lon="5.42946">
        <ele>233.65</ele>
        <time>2020-06-11T13:00:17.000Z</time>
      </trkpt>
      <trkpt lat="45.19183" lon="5.42971">
        <ele>234.05</ele>
        <time>2020-06-11T12:59:57.000Z</time>
      </trkpt>
      <trkpt lat="45.19198" lon="5.4299">
        <ele>234.18</ele>
        <time>2020-06-11T12:59:42.000Z</time>
      </trkpt>
      <trkpt lat="45.19221" lon="5.43012">
        <ele>233.95</ele>
        <time>2020-06-11T12:59:21.000Z</time>
      </trkpt>
      <trkpt lat="45.19234" lon="5.43026">
        <ele>233.72</ele>
        <time>2020-06-11T12:59:06.000Z</time>
      </trkpt>
      <trkpt lat="45.19248" lon="5.43043">
        <ele>233.48</ele>
        <time>2020-06-11T12:58:51.000Z</time>
      </trkpt>
      <trkpt lat="45.1927" lon="5.43061">
        <ele>233.31</ele>
        <time>2020-06-11T12:58:31.000Z</time>
      </trkpt>
      <trkpt lat="45.19282" lon="5.43079">
        <ele>233.52</ele>
        <time>2020-06-11T12:58:16.000Z</time>
      </trkpt>
      <trkpt lat="45.19298" lon="5.43095">
        <ele>233.78</ele>
        <time>2020-06-11T12:58:01.000Z</time>
      </trkpt>
      <trkpt lat="45.19318" lon="5.43112">
        <ele>233.89</ele>
        <time>2020-06-11T12:57:41.000Z</time>
      </trkpt>
      <trkpt lat="45.19331" lon="5.43128">
        <ele>233.93</ele>
        <time>2020-06-11T12:57:26.000Z</time>
      </trkpt>
      <trkpt lat="45.19349" lon="5.43148">
        <ele>234.01</ele>
        <time>2020-06-11T12:57:05.000Z</time>
      </trkpt>
      <trkpt lat="45.19363" lon="5.43157">
        <ele>234.06</ele>
        <time>2020-06-11T12:56:45.000Z</time>
      </trkpt>
      <trkpt lat="45.19371" lon="5.43165">
        <ele>234.26</ele>
        <time>2020-06-11T12:56:21.000Z</time>
      </trkpt>
      <trkpt lat="45.19358" lon="5.43192">
        <ele>235.99</ele>
        <time>2020-06-11T12:55:58.000Z</time>
      </trkpt>
      <trkpt lat="45.19347" lon="5.43207">
        <ele>237.27</ele>
        <time>2020-06-11T12:55:41.000Z</time>
      </trkpt>
      <trkpt lat="45.19334" lon="5.43211">
        <ele>237.8</ele>
        <time>2020-06-11T12:55:06.000Z</time>
      </trkpt>
      <trkpt lat="45.19316" lon="5.43226">
        <ele>239.08</ele>
        <time>2020-06-11T12:54:46.000Z</time>
      </trkpt>
      <trkpt lat="45.19308" lon="5.43249">
        <ele>240.19</ele>
        <time>2020-06-11T12:54:31.000Z</time>
      </trkpt>
      <trkpt lat="45.19301" lon="5.43274">
        <ele>240.49</ele>
        <time>2020-06-11T12:54:16.000Z</time>
      </trkpt>
      <trkpt lat="45.19292" lon="5.43299">
        <ele>240.28</ele>
        <time>2020-06-11T12:53:56.000Z</time>
      </trkpt>
      <trkpt lat="45.19286" lon="5.43324">
        <ele>240.04</ele>
        <time>2020-06-11T12:53:41.000Z</time>
      </trkpt>
      <trkpt lat="45.19276" lon="5.43355">
        <ele>239.98</ele>
        <time>2020-06-11T12:53:21.000Z</time>
      </trkpt>
      <trkpt lat="45.19268" lon="5.43381">
        <ele>239.97</ele>
        <time>2020-06-11T12:53:06.000Z</time>
      </trkpt>
      <trkpt lat="45.19261" lon="5.43409">
        <ele>239.99</ele>
        <time>2020-06-11T12:52:51.000Z</time>
      </trkpt>
      <trkpt lat="45.19255" lon="5.43441">
        <ele>240.01</ele>
        <time>2020-06-11T12:52:30.000Z</time>
      </trkpt>
      <trkpt lat="45.19247" lon="5.43461">
        <ele>239.99</ele>
        <time>2020-06-11T12:52:15.000Z</time>
      </trkpt>
      <trkpt lat="45.19239" lon="5.43482">
        <ele>239.97</ele>
        <time>2020-06-11T12:52:00.000Z</time>
      </trkpt>
      <trkpt lat="45.19222" lon="5.4351">
        <ele>239.96</ele>
        <time>2020-06-11T12:51:40.000Z</time>
      </trkpt>
      <trkpt lat="45.19214" lon="5.43531">
        <ele>239.99</ele>
        <time>2020-06-11T12:51:25.000Z</time>
      </trkpt>
      <trkpt lat="45.19199" lon="5.43555">
        <ele>240.07</ele>
        <time>2020-06-11T12:51:05.000Z</time>
      </trkpt>
      <trkpt lat="45.19193" lon="5.43579">
        <ele>240.11</ele>
        <time>2020-06-11T12:50:50.000Z</time>
      </trkpt>
      <trkpt lat="45.19183" lon="5.436">
        <ele>240.13</ele>
        <time>2020-06-11T12:50:35.000Z</time>
      </trkpt>
      <trkpt lat="45.19171" lon="5.43624">
        <ele>240.07</ele>
        <time>2020-06-11T12:50:14.000Z</time>
      </trkpt>
      <trkpt lat="45.19158" lon="5.4364">
        <ele>239.78</ele>
        <time>2020-06-11T12:49:59.000Z</time>
      </trkpt>
      <trkpt lat="45.19141" lon="5.43652">
        <ele>239.07</ele>
        <time>2020-06-11T12:49:44.000Z</time>
      </trkpt>
      <trkpt lat="45.19123" lon="5.43668">
        <ele>237.96</ele>
        <time>2020-06-11T12:49:23.000Z</time>
      </trkpt>
      <trkpt lat="45.19108" lon="5.43665">
        <ele>237.14</ele>
        <time>2020-06-11T12:49:06.000Z</time>
      </trkpt>
      <trkpt lat="45.19092" lon="5.43654">
        <ele>236.56</ele>
        <time>2020-06-11T12:48:49.000Z</time>
      </trkpt>
      <trkpt lat="45.19067" lon="5.43665">
        <ele>235.64</ele>
        <time>2020-06-11T12:48:29.000Z</time>
      </trkpt>
      <trkpt lat="45.19051" lon="5.4367">
        <ele>235.3</ele>
        <time>2020-06-11T12:48:14.000Z</time>
      </trkpt>
      <trkpt lat="45.19033" lon="5.43687">
        <ele>235.02</ele>
        <time>2020-06-11T12:47:54.000Z</time>
      </trkpt>
      <trkpt lat="45.19024" lon="5.43705">
        <ele>234.91</ele>
        <time>2020-06-11T12:47:38.000Z</time>
      </trkpt>
      <trkpt lat="45.19016" lon="5.43731">
        <ele>234.88</ele>
        <time>2020-06-11T12:47:23.000Z</time>
      </trkpt>
      <trkpt lat="45.19" lon="5.43761">
        <ele>235.09</ele>
        <time>2020-06-11T12:47:03.000Z</time>
      </trkpt>
      <trkpt lat="45.18995" lon="5.43784">
        <ele>235.34</ele>
        <time>2020-06-11T12:46:48.000Z</time>
      </trkpt>
      <trkpt lat="45.18988" lon="5.43808">
        <ele>235.64</ele>
        <time>2020-06-11T12:46:33.000Z</time>
      </trkpt>
      <trkpt lat="45.18994" lon="5.43821">
        <ele>235.84</ele>
        <time>2020-06-11T12:46:08.000Z</time>
      </trkpt>
      <trkpt lat="45.1901" lon="5.43826">
        <ele>235.88</ele>
        <time>2020-06-11T12:45:53.000Z</time>
      </trkpt>
      <trkpt lat="45.19032" lon="5.43834">
        <ele>235.72</ele>
        <time>2020-06-11T12:45:33.000Z</time>
      </trkpt>
      <trkpt lat="45.19052" lon="5.4384">
        <ele>235.47</ele>
        <time>2020-06-11T12:45:18.000Z</time>
      </trkpt>
      <trkpt lat="45.19068" lon="5.43843">
        <ele>235.24</ele>
        <time>2020-06-11T12:45:03.000Z</time>
      </trkpt>
      <trkpt lat="45.19093" lon="5.43841">
        <ele>234.96</ele>
        <time>2020-06-11T12:44:43.000Z</time>
      </trkpt>
      <trkpt lat="45.19108" lon="5.43838">
        <ele>234.79</ele>
        <time>2020-06-11T12:44:26.000Z</time>
      </trkpt>
      <trkpt lat="45.19126" lon="5.43844">
        <ele>234.59</ele>
        <time>2020-06-11T12:44:11.000Z</time>
      </trkpt>
      <trkpt lat="45.19147" lon="5.43865">
        <ele>234.48</ele>
        <time>2020-06-11T12:43:51.000Z</time>
      </trkpt>
      <trkpt lat="45.19167" lon="5.43877">
        <ele>234.7</ele>
        <time>2020-06-11T12:43:36.000Z</time>
      </trkpt>
      <trkpt lat="45.19191" lon="5.43898">
        <ele>235.38</ele>
        <time>2020-06-11T12:43:14.000Z</time>
      </trkpt>
      <trkpt lat="45.19207" lon="5.43904">
        <ele>235.85</ele>
        <time>2020-06-11T12:42:59.000Z</time>
      </trkpt>
      <trkpt lat="45.19224" lon="5.43911">
        <ele>236.28</ele>
        <time>2020-06-11T12:42:44.000Z</time>
      </trkpt>
      <trkpt lat="45.19249" lon="5.43913">
        <ele>237.05</ele>
        <time>2020-06-11T12:42:24.000Z</time>
      </trkpt>
      <trkpt lat="45.19267" lon="5.43921">
        <ele>237.5</ele>
        <time>2020-06-11T12:42:09.000Z</time>
      </trkpt>
      <trkpt lat="45.19273" lon="5.43944">
        <ele>237.44</ele>
        <time>2020-06-11T12:41:54.000Z</time>
      </trkpt>
      <trkpt lat="45.1927" lon="5.43977">
        <ele>236.9</ele>
        <time>2020-06-11T12:41:34.000Z</time>
      </trkpt>
      <trkpt lat="45.19273" lon="5.44001">
        <ele>236.68</ele>
        <time>2020-06-11T12:41:19.000Z</time>
      </trkpt>
      <trkpt lat="45.19282" lon="5.44023">
        <ele>236.63</ele>
        <time>2020-06-11T12:41:04.000Z</time>
      </trkpt>
      <trkpt lat="45.19294" lon="5.44051">
        <ele>236.46</ele>
        <time>2020-06-11T12:40:43.000Z</time>
      </trkpt>
      <trkpt lat="45.19299" lon="5.44074">
        <ele>236.19</ele>
        <time>2020-06-11T12:40:28.000Z</time>
      </trkpt>
      <trkpt lat="45.19297" lon="5.44109">
        <ele>235.61</ele>
        <time>2020-06-11T12:40:08.000Z</time>
      </trkpt>
      <trkpt lat="45.19302" lon="5.44135">
        <ele>235.34</ele>
        <time>2020-06-11T12:39:53.000Z</time>
      </trkpt>
      <trkpt lat="45.19309" lon="5.4416">
        <ele>235.13</ele>
        <time>2020-06-11T12:39:38.000Z</time>
      </trkpt>
      <trkpt lat="45.19319" lon="5.44189">
        <ele>234.95</ele>
        <time>2020-06-11T12:39:18.000Z</time>
      </trkpt>
      <trkpt lat="45.19327" lon="5.44211">
        <ele>234.89</ele>
        <time>2020-06-11T12:39:03.000Z</time>
      </trkpt>
      <trkpt lat="45.19333" lon="5.44234">
        <ele>234.91</ele>
        <time>2020-06-11T12:38:48.000Z</time>
      </trkpt>
      <trkpt lat="45.19347" lon="5.44262">
        <ele>234.89</ele>
        <time>2020-06-11T12:38:28.000Z</time>
      </trkpt>
      <trkpt lat="45.19363" lon="5.44283">
        <ele>234.87</ele>
        <time>2020-06-11T12:38:13.000Z</time>
      </trkpt>
      <trkpt lat="45.19384" lon="5.44311">
        <ele>234.59</ele>
        <time>2020-06-11T12:37:53.000Z</time>
      </trkpt>
      <trkpt lat="45.19394" lon="5.44326">
        <ele>234.36</ele>
        <time>2020-06-11T12:37:38.000Z</time>
      </trkpt>
      <trkpt lat="45.19401" lon="5.44349">
        <ele>234.29</ele>
        <time>2020-06-11T12:37:23.000Z</time>
      </trkpt>
      <trkpt lat="45.19419" lon="5.44368">
        <ele>234.26</ele>
        <time>2020-06-11T12:37:03.000Z</time>
      </trkpt>
      <trkpt lat="45.1943" lon="5.44387">
        <ele>234.61</ele>
        <time>2020-06-11T12:36:48.000Z</time>
      </trkpt>
      <trkpt lat="45.1944" lon="5.44406">
        <ele>235.11</ele>
        <time>2020-06-11T12:36:33.000Z</time>
      </trkpt>
      <trkpt lat="45.19451" lon="5.44434">
        <ele>235.37</ele>
        <time>2020-06-11T12:36:12.000Z</time>
      </trkpt>
      <trkpt lat="45.1946" lon="5.44455">
        <ele>234.96</ele>
        <time>2020-06-11T12:35:57.000Z</time>
      </trkpt>
      <trkpt lat="45.19465" lon="5.44475">
        <ele>234.2</ele>
        <time>2020-06-11T12:35:40.000Z</time>
        <extensions>
          <visugpx:TrkExtension xmlns:visugpx="https://www.visugpx.com/editgpx/">
            <visugpx:node>11</visugpx:node>
            </visugpx:TrkExtension>
        </extensions>
      </trkpt>
      <trkpt lat="45.19474" lon="5.44481">
        <ele>234.5</ele>
      </trkpt>
      <trkpt lat="45.19479" lon="5.44489">
        <ele>233.8</ele>
      </trkpt>
      <trkpt lat="45.19483" lon="5.44499">
        <ele>233.2</ele>
      </trkpt>
      <trkpt lat="45.19492" lon="5.44498">
        <ele>232.6</ele>
      </trkpt>
      <trkpt lat="45.195" lon="5.44499">
        <ele>232</ele>
      </trkpt>
      <trkpt lat="45.19509" lon="5.44501">
        <ele>231.7</ele>
      </trkpt>
      <trkpt lat="45.19522" lon="5.44504">
        <ele>231.2</ele>
      </trkpt>
      <trkpt lat="45.19524" lon="5.4452">
        <ele>231</ele>
      </trkpt>
      <trkpt lat="45.19531" lon="5.44536">
        <ele>230.4</ele>
      </trkpt>
      <trkpt lat="45.19553" lon="5.44579">
        <ele>229</ele>
      </trkpt>
      <trkpt lat="45.19568" lon="5.44601">
        <ele>227.9</ele>
      </trkpt>
      <trkpt lat="45.19585" lon="5.44625">
        <ele>226.9</ele>
      </trkpt>
      <trkpt lat="45.19598" lon="5.44643">
        <ele>226.4</ele>
      </trkpt>
      <trkpt lat="45.19615" lon="5.44664">
        <ele>225.7</ele>
      </trkpt>
      <trkpt lat="45.19618" lon="5.44668">
        <ele>225.5</ele>
      </trkpt>
      <trkpt lat="45.1963" lon="5.44688">
        <ele>224.6</ele>
        <extensions>
          <visugpx:TrkExtension xmlns:visugpx="https://www.visugpx.com/editgpx/">
            <visugpx:node>12</visugpx:node>
            </visugpx:TrkExtension>
        </extensions>
      </trkpt>
      <trkpt lat="45.19633" lon="5.44693">
        <ele>221.23</ele>
        <time>2020-06-11T12:25:01.000Z</time>
        <extensions>
          <visugpx:TrkExtension xmlns:visugpx="https://www.visugpx.com/editgpx/">
            <visugpx:node>11</visugpx:node>
            </visugpx:TrkExtension>
        </extensions>
      </trkpt>
      <trkpt lat="45.19643" lon="5.44716">
        <ele>220.91</ele>
        <time>2020-06-11T12:24:46.000Z</time>
      </trkpt>
      <trkpt lat="45.19653" lon="5.44736">
        <ele>220.64</ele>
        <time>2020-06-11T12:24:30.000Z</time>
      </trkpt>
      <trkpt lat="45.19671" lon="5.44757">
        <ele>219.79</ele>
        <time>2020-06-11T12:24:10.000Z</time>
      </trkpt>
      <trkpt lat="45.19685" lon="5.44773">
        <ele>218.96</ele>
        <time>2020-06-11T12:23:55.000Z</time>
      </trkpt>
      <trkpt lat="45.19696" lon="5.44793">
        <ele>218.14</ele>
        <time>2020-06-11T12:23:39.000Z</time>
      </trkpt>
      <trkpt lat="45.19715" lon="5.44819">
        <ele>216.41</ele>
        <time>2020-06-11T12:23:19.000Z</time>
      </trkpt>
      <trkpt lat="45.19728" lon="5.44838">
        <ele>215.08</ele>
        <time>2020-06-11T12:23:04.000Z</time>
      </trkpt>
      <trkpt lat="45.19741" lon="5.44864">
        <ele>213.75</ele>
        <time>2020-06-11T12:22:43.000Z</time>
      </trkpt>
      <trkpt lat="45.19751" lon="5.44885">
        <ele>212.87</ele>
        <time>2020-06-11T12:22:28.000Z</time>
      </trkpt>
      <trkpt lat="45.19756" lon="5.44907">
        <ele>212.58</ele>
        <time>2020-06-11T12:22:13.000Z</time>
      </trkpt>
      <trkpt lat="45.19767" lon="5.44938">
        <ele>212.16</ele>
        <time>2020-06-11T12:21:49.000Z</time>
      </trkpt>
      <trkpt lat="45.19774" lon="5.44959">
        <ele>211.98</ele>
        <time>2020-06-11T12:21:33.000Z</time>
      </trkpt>
      <trkpt lat="45.19782" lon="5.44981">
        <ele>211.81</ele>
        <time>2020-06-11T12:21:18.000Z</time>
      </trkpt>
      <trkpt lat="45.19785" lon="5.45013">
        <ele>212.24</ele>
        <time>2020-06-11T12:20:58.000Z</time>
      </trkpt>
      <trkpt lat="45.19784" lon="5.45039">
        <ele>212.97</ele>
        <time>2020-06-11T12:20:43.000Z</time>
      </trkpt>
      <trkpt lat="45.19786" lon="5.45077">
        <ele>213.84</ele>
        <time>2020-06-11T12:20:23.000Z</time>
      </trkpt>
      <trkpt lat="45.19787" lon="5.45103">
        <ele>214.32</ele>
        <time>2020-06-11T12:20:08.000Z</time>
      </trkpt>
      <trkpt lat="45.19789" lon="5.45128">
        <ele>214.65</ele>
        <time>2020-06-11T12:19:53.000Z</time>
      </trkpt>
      <trkpt lat="45.19794" lon="5.4516">
        <ele>214.98</ele>
        <time>2020-06-11T12:19:33.000Z</time>
      </trkpt>
      <trkpt lat="45.19798" lon="5.45183">
        <ele>215.2</ele>
        <time>2020-06-11T12:19:18.000Z</time>
      </trkpt>
      <trkpt lat="45.198" lon="5.45206">
        <ele>215.49</ele>
        <time>2020-06-11T12:19:03.000Z</time>
      </trkpt>
      <trkpt lat="45.19806" lon="5.45238">
        <ele>215.9</ele>
        <time>2020-06-11T12:18:43.000Z</time>
      </trkpt>
      <trkpt lat="45.19814" lon="5.4526">
        <ele>216.15</ele>
        <time>2020-06-11T12:18:28.000Z</time>
      </trkpt>
      <trkpt lat="45.19823" lon="5.45291">
        <ele>216.56</ele>
        <time>2020-06-11T12:18:08.000Z</time>
      </trkpt>
      <trkpt lat="45.19827" lon="5.45314">
        <ele>216.93</ele>
        <time>2020-06-11T12:17:53.000Z</time>
      </trkpt>
      <trkpt lat="45.19834" lon="5.45341">
        <ele>217.11</ele>
        <time>2020-06-11T12:17:38.000Z</time>
      </trkpt>
      <trkpt lat="45.19842" lon="5.45372">
        <ele>217.17</ele>
        <time>2020-06-11T12:17:18.000Z</time>
      </trkpt>
      <trkpt lat="45.19846" lon="5.45393">
        <ele>217.32</ele>
        <time>2020-06-11T12:17:03.000Z</time>
      </trkpt>
      <trkpt lat="45.19854" lon="5.45416">
        <ele>217.31</ele>
        <time>2020-06-11T12:16:48.000Z</time>
      </trkpt>
      <trkpt lat="45.19863" lon="5.45446">
        <ele>217.72</ele>
        <time>2020-06-11T12:16:28.000Z</time>
      </trkpt>
      <trkpt lat="45.19866" lon="5.45471">
        <ele>218.56</ele>
        <time>2020-06-11T12:16:13.000Z</time>
      </trkpt>
      <trkpt lat="45.19874" lon="5.45492">
        <ele>218.86</ele>
        <time>2020-06-11T12:15:50.000Z</time>
      </trkpt>
      <trkpt lat="45.19884" lon="5.45524">
        <ele>219.52</ele>
        <time>2020-06-11T12:15:30.000Z</time>
      </trkpt>
      <trkpt lat="45.1989" lon="5.45548">
        <ele>219.97</ele>
        <time>2020-06-11T12:15:15.000Z</time>
      </trkpt>
      <trkpt lat="45.19899" lon="5.45579">
        <ele>220.18</ele>
        <time>2020-06-11T12:14:55.000Z</time>
      </trkpt>
      <trkpt lat="45.19908" lon="5.45601">
        <ele>219.98</ele>
        <time>2020-06-11T12:14:40.000Z</time>
      </trkpt>
      <trkpt lat="45.19918" lon="5.45625">
        <ele>220.05</ele>
        <time>2020-06-11T12:14:25.000Z</time>
      </trkpt>
      <trkpt lat="45.1993" lon="5.45657">
        <ele>220.62</ele>
        <time>2020-06-11T12:14:05.000Z</time>
      </trkpt>
      <trkpt lat="45.1994" lon="5.4568">
        <ele>221.1</ele>
        <time>2020-06-11T12:13:50.000Z</time>
      </trkpt>
      <trkpt lat="45.19947" lon="5.45703">
        <ele>221.9</ele>
        <time>2020-06-11T12:13:35.000Z</time>
      </trkpt>
      <trkpt lat="45.1996" lon="5.45731">
        <ele>221.89</ele>
        <time>2020-06-11T12:13:15.000Z</time>
      </trkpt>
      <trkpt lat="45.19951" lon="5.45754">
        <ele>224.8</ele>
        <time>2020-06-11T12:12:58.000Z</time>
      </trkpt>
      <trkpt lat="45.19931" lon="5.45775">
        <ele>228.95</ele>
        <time>2020-06-11T12:12:38.000Z</time>
      </trkpt>
      <trkpt lat="45.19922" lon="5.458">
        <ele>230.22</ele>
        <time>2020-06-11T12:12:23.000Z</time>
      </trkpt>
      <trkpt lat="45.19915" lon="5.4582">
        <ele>230.97</ele>
        <time>2020-06-11T12:12:07.000Z</time>
      </trkpt>
      <trkpt lat="45.19905" lon="5.45846">
        <ele>232.21</ele>
        <time>2020-06-11T12:11:47.000Z</time>
      </trkpt>
      <trkpt lat="45.19898" lon="5.45872">
        <ele>233.32</ele>
        <time>2020-06-11T12:11:32.000Z</time>
      </trkpt>
      <trkpt lat="45.19891" lon="5.45892">
        <ele>234.18</ele>
        <time>2020-06-11T12:11:17.000Z</time>
      </trkpt>
      <trkpt lat="45.19883" lon="5.45918">
        <ele>235.25</ele>
        <time>2020-06-11T12:10:52.000Z</time>
      </trkpt>
      <trkpt lat="45.19873" lon="5.4594">
        <ele>236.28</ele>
        <time>2020-06-11T12:10:37.000Z</time>
      </trkpt>
      <trkpt lat="45.19859" lon="5.45953">
        <ele>237.34</ele>
        <time>2020-06-11T12:10:22.000Z</time>
      </trkpt>
      <trkpt lat="45.1984" lon="5.45945">
        <ele>238.25</ele>
        <time>2020-06-11T12:10:02.000Z</time>
      </trkpt>
      <trkpt lat="45.19825" lon="5.45935">
        <ele>238.61</ele>
        <time>2020-06-11T12:09:47.000Z</time>
      </trkpt>
      <trkpt lat="45.19805" lon="5.45915">
        <ele>238.73</ele>
        <time>2020-06-11T12:09:27.000Z</time>
      </trkpt>
      <trkpt lat="45.19794" lon="5.45898">
        <ele>238.53</ele>
        <time>2020-06-11T12:09:08.000Z</time>
      </trkpt>
      <trkpt lat="45.19792" lon="5.45874">
        <ele>237.96</ele>
        <time>2020-06-11T12:08:52.000Z</time>
      </trkpt>
      <trkpt lat="45.19785" lon="5.45847">
        <ele>237.27</ele>
        <time>2020-06-11T12:08:31.000Z</time>
      </trkpt>
      <trkpt lat="45.19773" lon="5.45833">
        <ele>236.98</ele>
        <time>2020-06-11T12:08:15.000Z</time>
      </trkpt>
      <trkpt lat="45.1976" lon="5.45815">
        <ele>236.55</ele>
        <time>2020-06-11T12:08:00.000Z</time>
      </trkpt>
      <trkpt lat="45.19738" lon="5.45799">
        <ele>236.19</ele>
        <time>2020-06-11T12:07:38.000Z</time>
      </trkpt>
      <trkpt lat="45.19721" lon="5.45797">
        <ele>236.15</ele>
        <time>2020-06-11T12:07:19.000Z</time>
      </trkpt>
      <trkpt lat="45.19697" lon="5.45791">
        <ele>235.93</ele>
        <time>2020-06-11T12:06:59.000Z</time>
      </trkpt>
      <trkpt lat="45.19681" lon="5.45789">
        <ele>235.74</ele>
        <time>2020-06-11T12:06:43.000Z</time>
      </trkpt>
      <trkpt lat="45.19663" lon="5.45797">
        <ele>235.55</ele>
        <time>2020-06-11T12:06:28.000Z</time>
      </trkpt>
      <trkpt lat="45.19648" lon="5.45818">
        <ele>235.3</ele>
        <time>2020-06-11T12:06:07.000Z</time>
      </trkpt>
      <trkpt lat="45.19637" lon="5.45838">
        <ele>235.09</ele>
        <time>2020-06-11T12:05:52.000Z</time>
      </trkpt>
      <trkpt lat="45.19624" lon="5.45857">
        <ele>234.79</ele>
        <time>2020-06-11T12:05:37.000Z</time>
      </trkpt>
      <trkpt lat="45.19607" lon="5.4588">
        <ele>234.42</ele>
        <time>2020-06-11T12:05:16.000Z</time>
      </trkpt>
      <trkpt lat="45.19594" lon="5.45891">
        <ele>234.12</ele>
        <time>2020-06-11T12:04:59.000Z</time>
      </trkpt>
      <trkpt lat="45.19583" lon="5.45909">
        <ele>233.92</ele>
        <time>2020-06-11T12:04:43.000Z</time>
      </trkpt>
      <trkpt lat="45.1956" lon="5.45925">
        <ele>233.19</ele>
        <time>2020-06-11T12:04:23.000Z</time>
      </trkpt>
      <trkpt lat="45.19545" lon="5.45933">
        <ele>232.72</ele>
        <time>2020-06-11T12:04:03.000Z</time>
      </trkpt>
      <trkpt lat="45.19531" lon="5.45954">
        <ele>232.39</ele>
        <time>2020-06-11T12:03:34.000Z</time>
      </trkpt>
      <trkpt lat="45.19525" lon="5.45976">
        <ele>232.26</ele>
        <time>2020-06-11T12:03:18.000Z</time>
      </trkpt>
      <trkpt lat="45.19516" lon="5.45998">
        <ele>231.73</ele>
        <time>2020-06-11T12:03:03.000Z</time>
      </trkpt>
      <trkpt lat="45.19507" lon="5.46028">
        <ele>230.52</ele>
        <time>2020-06-11T12:02:43.000Z</time>
      </trkpt>
      <trkpt lat="45.19497" lon="5.46049">
        <ele>229.3</ele>
        <time>2020-06-11T12:02:28.000Z</time>
      </trkpt>
      <trkpt lat="45.19485" lon="5.4606">
        <ele>228.31</ele>
        <time>2020-06-11T12:02:12.000Z</time>
      </trkpt>
      <trkpt lat="45.19472" lon="5.46094">
        <ele>226.47</ele>
        <time>2020-06-11T12:01:52.000Z</time>
      </trkpt>
      <trkpt lat="45.19468" lon="5.4612">
        <ele>225.28</ele>
        <time>2020-06-11T12:01:37.000Z</time>
      </trkpt>
      <trkpt lat="45.19456" lon="5.46144">
        <ele>223.95</ele>
        <time>2020-06-11T12:01:17.000Z</time>
      </trkpt>
      <trkpt lat="45.19446" lon="5.46164">
        <ele>223.11</ele>
        <time>2020-06-11T12:01:01.000Z</time>
      </trkpt>
      <trkpt lat="45.19441" lon="5.46187">
        <ele>222.32</ele>
        <time>2020-06-11T12:00:41.000Z</time>
      </trkpt>
      <trkpt lat="45.1943" lon="5.46213">
        <ele>221.59</ele>
        <time>2020-06-11T12:00:20.000Z</time>
      </trkpt>
      <trkpt lat="45.1942" lon="5.46235">
        <ele>221.22</ele>
        <time>2020-06-11T12:00:04.000Z</time>
      </trkpt>
      <trkpt lat="45.19412" lon="5.46259">
        <ele>220.98</ele>
        <time>2020-06-11T11:59:49.000Z</time>
      </trkpt>
      <trkpt lat="45.19393" lon="5.46279">
        <ele>221.27</ele>
        <time>2020-06-11T11:59:28.000Z</time>
      </trkpt>
      <trkpt lat="45.19384" lon="5.46293">
        <ele>221.38</ele>
        <time>2020-06-11T11:59:11.000Z</time>
      </trkpt>
      <trkpt lat="45.19377" lon="5.46315">
        <ele>221.24</ele>
        <time>2020-06-11T11:58:55.000Z</time>
      </trkpt>
      <trkpt lat="45.19365" lon="5.46336">
        <ele>221.22</ele>
        <time>2020-06-11T11:58:35.000Z</time>
      </trkpt>
      <trkpt lat="45.19358" lon="5.46358">
        <ele>220.91</ele>
        <time>2020-06-11T11:58:20.000Z</time>
      </trkpt>
      <trkpt lat="45.19364" lon="5.46386">
        <ele>220.16</ele>
        <time>2020-06-11T11:57:57.000Z</time>
      </trkpt>
      <trkpt lat="45.19374" lon="5.46408">
        <ele>219.67</ele>
        <time>2020-06-11T11:57:42.000Z</time>
      </trkpt>
      <trkpt lat="45.19381" lon="5.46429">
        <ele>219.43</ele>
        <time>2020-06-11T11:57:27.000Z</time>
      </trkpt>
      <trkpt lat="45.19386" lon="5.46462">
        <ele>219.43</ele>
        <time>2020-06-11T11:57:07.000Z</time>
      </trkpt>
      <trkpt lat="45.19387" lon="5.46486">
        <ele>219.48</ele>
        <time>2020-06-11T11:56:52.000Z</time>
      </trkpt>
      <trkpt lat="45.19388" lon="5.4651">
        <ele>219.41</ele>
        <time>2020-06-11T11:56:37.000Z</time>
      </trkpt>
      <trkpt lat="45.19391" lon="5.46544">
        <ele>219.03</ele>
        <time>2020-06-11T11:56:17.000Z</time>
      </trkpt>
      <trkpt lat="45.19391" lon="5.46569">
        <ele>218.76</ele>
        <time>2020-06-11T11:56:02.000Z</time>
      </trkpt>
      <trkpt lat="45.19392" lon="5.46603">
        <ele>218.62</ele>
        <time>2020-06-11T11:55:42.000Z</time>
      </trkpt>
      <trkpt lat="45.19395" lon="5.46627">
        <ele>218.56</ele>
        <time>2020-06-11T11:55:27.000Z</time>
      </trkpt>
      <trkpt lat="45.19406" lon="5.46647">
        <ele>218.32</ele>
        <time>2020-06-11T11:55:12.000Z</time>
      </trkpt>
      <trkpt lat="45.19422" lon="5.46671">
        <ele>217.85</ele>
        <time>2020-06-11T11:54:52.000Z</time>
      </trkpt>
      <trkpt lat="45.19432" lon="5.46688">
        <ele>217.4</ele>
        <time>2020-06-11T11:54:36.000Z</time>
      </trkpt>
      <trkpt lat="45.19443" lon="5.46707">
        <ele>216.7</ele>
        <time>2020-06-11T11:54:21.000Z</time>
      </trkpt>
      <trkpt lat="45.19447" lon="5.46742">
        <ele>215.75</ele>
        <time>2020-06-11T11:54:00.000Z</time>
      </trkpt>
      <trkpt lat="45.19441" lon="5.46765">
        <ele>215.63</ele>
        <time>2020-06-11T11:53:44.000Z</time>
      </trkpt>
      <trkpt lat="45.19441" lon="5.46787">
        <ele>215.3</ele>
        <time>2020-06-11T11:53:24.000Z</time>
      </trkpt>
      <trkpt lat="45.19458" lon="5.4681">
        <ele>213.83</ele>
        <time>2020-06-11T11:53:04.000Z</time>
      </trkpt>
      <trkpt lat="45.19471" lon="5.46826">
        <ele>212.71</ele>
        <time>2020-06-11T11:52:49.000Z</time>
      </trkpt>
      <trkpt lat="45.19461" lon="5.46851">
        <ele>212.82</ele>
        <time>2020-06-11T11:52:28.000Z</time>
      </trkpt>
      <trkpt lat="45.19447" lon="5.46873">
        <ele>213.17</ele>
        <time>2020-06-11T11:52:13.000Z</time>
      </trkpt>
      <trkpt lat="45.19437" lon="5.46897">
        <ele>213.08</ele>
        <time>2020-06-11T11:51:58.000Z</time>
      </trkpt>
      <trkpt lat="45.1943" lon="5.46928">
        <ele>212.86</ele>
        <time>2020-06-11T11:51:38.000Z</time>
      </trkpt>
      <trkpt lat="45.19443" lon="5.46947">
        <ele>211.78</ele>
        <time>2020-06-11T11:51:23.000Z</time>
      </trkpt>
      <trkpt lat="45.19455" lon="5.46973">
        <ele>210.72</ele>
        <time>2020-06-11T11:51:08.000Z</time>
      </trkpt>
      <trkpt lat="45.19467" lon="5.47004">
        <ele>209.69</ele>
        <time>2020-06-11T11:50:45.000Z</time>
      </trkpt>
      <trkpt lat="45.19469" lon="5.47028">
        <ele>209.52</ele>
        <time>2020-06-11T11:50:30.000Z</time>
      </trkpt>
      <trkpt lat="45.19474" lon="5.4706">
        <ele>209.36</ele>
        <time>2020-06-11T11:50:10.000Z</time>
      </trkpt>
      <trkpt lat="45.19469" lon="5.4708">
        <ele>209.79</ele>
        <time>2020-06-11T11:49:55.000Z</time>
      </trkpt>
      <trkpt lat="45.19466" lon="5.47103">
        <ele>210.1</ele>
        <time>2020-06-11T11:49:40.000Z</time>
      </trkpt>
      <trkpt lat="45.19463" lon="5.4713">
        <ele>210.58</ele>
        <time>2020-06-11T11:48:47.000Z</time>
      </trkpt>
      <trkpt lat="45.19457" lon="5.47148">
        <ele>211.04</ele>
        <time>2020-06-11T11:48:24.000Z</time>
      </trkpt>
      <trkpt lat="45.19458" lon="5.47154">
        <ele>211.04</ele>
        <time>2020-06-11T11:47:17.000Z</time>
      </trkpt>
      <trkpt lat="45.19444" lon="5.47176">
        <ele>211.69</ele>
        <time>2020-06-11T11:46:57.000Z</time>
      </trkpt>
      <trkpt lat="45.19425" lon="5.47185">
        <ele>212.47</ele>
        <time>2020-06-11T11:46:42.000Z</time>
      </trkpt>
      <trkpt lat="45.19414" lon="5.47211">
        <ele>212.69</ele>
        <time>2020-06-11T11:46:21.000Z</time>
      </trkpt>
      <trkpt lat="45.19411" lon="5.47234">
        <ele>212.52</ele>
        <time>2020-06-11T11:46:04.000Z</time>
      </trkpt>
      <trkpt lat="45.19406" lon="5.47254">
        <ele>212.39</ele>
        <time>2020-06-11T11:45:49.000Z</time>
      </trkpt>
      <trkpt lat="45.1939" lon="5.47279">
        <ele>212.57</ele>
        <time>2020-06-11T11:45:29.000Z</time>
      </trkpt>
      <trkpt lat="45.19374" lon="5.47277">
        <ele>213.56</ele>
        <time>2020-06-11T11:45:14.000Z</time>
      </trkpt>
      <trkpt lat="45.19353" lon="5.4727">
        <ele>214.85</ele>
        <time>2020-06-11T11:44:59.000Z</time>
      </trkpt>
      <trkpt lat="45.19331" lon="5.47265">
        <ele>216.12</ele>
        <time>2020-06-11T11:44:39.000Z</time>
      </trkpt>
      <trkpt lat="45.19319" lon="5.47255">
        <ele>216.99</ele>
        <time>2020-06-11T11:44:19.000Z</time>
      </trkpt>
      <trkpt lat="45.19301" lon="5.47248">
        <ele>218.43</ele>
        <time>2020-06-11T11:44:04.000Z</time>
      </trkpt>
      <trkpt lat="45.19279" lon="5.47242">
        <ele>220.28</ele>
        <time>2020-06-11T11:43:42.000Z</time>
      </trkpt>
      <trkpt lat="45.19265" lon="5.47233">
        <ele>221.2</ele>
        <time>2020-06-11T11:43:27.000Z</time>
      </trkpt>
      <trkpt lat="45.19245" lon="5.47219">
        <ele>221.9</ele>
        <time>2020-06-11T11:42:56.000Z</time>
      </trkpt>
      <trkpt lat="45.19229" lon="5.47228">
        <ele>222.36</ele>
        <time>2020-06-11T11:42:40.000Z</time>
      </trkpt>
      <trkpt lat="45.19215" lon="5.47231">
        <ele>222.42</ele>
        <time>2020-06-11T11:42:22.000Z</time>
      </trkpt>
      <trkpt lat="45.19194" lon="5.4722">
        <ele>222.59</ele>
        <time>2020-06-11T11:42:01.000Z</time>
      </trkpt>
      <trkpt lat="45.19175" lon="5.4721">
        <ele>223.34</ele>
        <time>2020-06-11T11:41:46.000Z</time>
      </trkpt>
      <trkpt lat="45.19161" lon="5.47197">
        <ele>224.84</ele>
        <time>2020-06-11T11:41:31.000Z</time>
      </trkpt>
      <trkpt lat="45.19138" lon="5.4718">
        <ele>227.5</ele>
        <time>2020-06-11T11:41:11.000Z</time>
      </trkpt>
      <trkpt lat="45.19121" lon="5.47169">
        <ele>229.82</ele>
        <time>2020-06-11T11:40:56.000Z</time>
      </trkpt>
      <trkpt lat="45.19097" lon="5.47148">
        <ele>234.76</ele>
        <time>2020-06-11T11:40:36.000Z</time>
      </trkpt>
      <trkpt lat="45.19085" lon="5.47134">
        <ele>239.02</ele>
        <time>2020-06-11T11:40:21.000Z</time>
      </trkpt>
      <trkpt lat="45.19075" lon="5.47119">
        <ele>244.82</ele>
        <time>2020-06-11T11:40:05.000Z</time>
      </trkpt>
      <trkpt lat="45.19064" lon="5.47093">
        <ele>254.4</ele>
        <time>2020-06-11T11:39:43.000Z</time>
      </trkpt>
      <trkpt lat="45.19055" lon="5.4708">
        <ele>264.48</ele>
        <time>2020-06-11T11:39:22.000Z</time>
      </trkpt>
      <trkpt lat="45.19053" lon="5.47103">
        <ele>266.44</ele>
        <time>2020-06-11T11:39:07.000Z</time>
      </trkpt>
      <trkpt lat="45.19063" lon="5.4713">
        <ele>254.02</ele>
        <time>2020-06-11T11:38:46.000Z</time>
      </trkpt>
      <trkpt lat="45.19061" lon="5.47153">
        <ele>253.67</ele>
        <time>2020-06-11T11:38:31.000Z</time>
      </trkpt>
      <trkpt lat="45.19049" lon="5.47169">
        <ele>258.07</ele>
        <time>2020-06-11T11:38:13.000Z</time>
      </trkpt>
      <trkpt lat="45.19028" lon="5.47181">
        <ele>268.51</ele>
        <time>2020-06-11T11:37:52.000Z</time>
      </trkpt>
      <trkpt lat="45.1901" lon="5.47187">
        <ele>279.93</ele>
        <time>2020-06-11T11:37:34.000Z</time>
      </trkpt>
      <trkpt lat="45.1899" lon="5.47201">
        <ele>292.02</ele>
        <time>2020-06-11T11:37:13.000Z</time>
      </trkpt>
      <trkpt lat="45.18987" lon="5.4722">
        <ele>284.29</ele>
        <time>2020-06-11T11:36:53.000Z</time>
      </trkpt>
      <trkpt lat="45.18974" lon="5.47239">
        <ele>292.65</ele>
        <time>2020-06-11T11:36:34.000Z</time>
      </trkpt>
      <trkpt lat="45.18965" lon="5.47261">
        <ele>301.63</ele>
        <time>2020-06-11T11:36:10.000Z</time>
      </trkpt>
      <trkpt lat="45.1895" lon="5.47278">
        <ele>319.83</ele>
        <time>2020-06-11T11:35:55.000Z</time>
      </trkpt>
      <trkpt lat="45.18935" lon="5.47292">
        <ele>333.18</ele>
        <time>2020-06-11T11:35:36.000Z</time>
      </trkpt>
      <trkpt lat="45.18922" lon="5.47316">
        <ele>331.81</ele>
        <time>2020-06-11T11:35:12.000Z</time>
      </trkpt>
      <trkpt lat="45.18938" lon="5.47323">
        <ele>316.26</ele>
        <time>2020-06-11T11:34:45.000Z</time>
      </trkpt>
      <trkpt lat="45.1895" lon="5.47357">
        <ele>300.86</ele>
        <time>2020-06-11T11:34:25.000Z</time>
      </trkpt>
      <trkpt lat="45.18936" lon="5.47373">
        <ele>297.94</ele>
        <time>2020-06-11T11:34:10.000Z</time>
      </trkpt>
      <trkpt lat="45.18924" lon="5.47397">
        <ele>287.98</ele>
        <time>2020-06-11T11:33:55.000Z</time>
      </trkpt>
      <trkpt lat="45.18919" lon="5.47417">
        <ele>282.88</ele>
        <time>2020-06-11T11:33:27.000Z</time>
      </trkpt>
      <trkpt lat="45.18923" lon="5.47437">
        <ele>285.13</ele>
        <time>2020-06-11T11:33:05.000Z</time>
      </trkpt>
      <trkpt lat="45.18921" lon="5.47457">
        <ele>291.14</ele>
        <time>2020-06-11T11:32:29.000Z</time>
      </trkpt>
      <trkpt lat="45.18925" lon="5.47486">
        <ele>302.83</ele>
        <time>2020-06-11T11:31:48.000Z</time>
      </trkpt>
      <trkpt lat="45.18925" lon="5.4751">
        <ele>305.2</ele>
        <time>2020-06-11T11:31:30.000Z</time>
      </trkpt>
      <trkpt lat="45.18921" lon="5.47528">
        <ele>301.01</ele>
        <time>2020-06-11T11:31:08.000Z</time>
      </trkpt>
      <trkpt lat="45.18916" lon="5.47549">
        <ele>294.72</ele>
        <time>2020-06-11T11:30:39.000Z</time>
      </trkpt>
      <trkpt lat="45.18912" lon="5.4757">
        <ele>290.48</ele>
        <time>2020-06-11T11:30:24.000Z</time>
      </trkpt>
      <trkpt lat="45.1891" lon="5.47592">
        <ele>291.19</ele>
        <time>2020-06-11T11:29:56.000Z</time>
      </trkpt>
      <trkpt lat="45.18897" lon="5.47608">
        <ele>294.6</ele>
        <time>2020-06-11T11:29:40.000Z</time>
      </trkpt>
      <trkpt lat="45.18886" lon="5.47628">
        <ele>300.4</ele>
        <time>2020-06-11T11:29:25.000Z</time>
      </trkpt>
      <trkpt lat="45.18867" lon="5.47648">
        <ele>304.84</ele>
        <time>2020-06-11T11:29:05.000Z</time>
      </trkpt>
      <trkpt lat="45.18853" lon="5.47659">
        <ele>306.04</ele>
        <time>2020-06-11T11:28:47.000Z</time>
      </trkpt>
      <trkpt lat="45.18842" lon="5.47675">
        <ele>306.21</ele>
        <time>2020-06-11T11:28:32.000Z</time>
      </trkpt>
      <trkpt lat="45.18836" lon="5.47703">
        <ele>304.99</ele>
        <time>2020-06-11T11:28:10.000Z</time>
      </trkpt>
      <trkpt lat="45.18831" lon="5.47724">
        <ele>304.72</ele>
        <time>2020-06-11T11:27:54.000Z</time>
      </trkpt>
      <trkpt lat="45.18819" lon="5.47751">
        <ele>307.51</ele>
        <time>2020-06-11T11:27:25.000Z</time>
      </trkpt>
      <trkpt lat="45.18807" lon="5.47769">
        <ele>311.87</ele>
        <time>2020-06-11T11:27:01.000Z</time>
      </trkpt>
      <trkpt lat="45.18792" lon="5.47783">
        <ele>316.03</ele>
        <time>2020-06-11T11:26:46.000Z</time>
      </trkpt>
      <trkpt lat="45.1877" lon="5.47789">
        <ele>323.57</ele>
        <time>2020-06-11T11:26:25.000Z</time>
      </trkpt>
      <trkpt lat="45.18755" lon="5.47788">
        <ele>329.85</ele>
        <time>2020-06-11T11:26:09.000Z</time>
      </trkpt>
      <trkpt lat="45.1874" lon="5.47786">
        <ele>335.54</ele>
        <time>2020-06-11T11:25:50.000Z</time>
      </trkpt>
      <trkpt lat="45.18725" lon="5.47794">
        <ele>334.98</ele>
        <time>2020-06-11T11:24:49.000Z</time>
      </trkpt>
      <trkpt lat="45.18723" lon="5.4781">
        <ele>327.16</ele>
        <time>2020-06-11T11:24:12.000Z</time>
      </trkpt>
      <trkpt lat="45.18729" lon="5.47822">
        <ele>319.44</ele>
        <time>2020-06-11T11:23:01.000Z</time>
      </trkpt>
      <trkpt lat="45.18733" lon="5.47817">
        <ele>320.24</ele>
        <time>2020-06-11T10:59:51.000Z</time>
      </trkpt>
      <trkpt lat="45.18733" lon="5.47822">
        <ele>318.18</ele>
        <time>2020-06-11T10:52:48.000Z</time>
      </trkpt>
      <trkpt lat="45.18733" lon="5.47847">
        <ele>313.9</ele>
        <time>2020-06-11T10:51:49.000Z</time>
      </trkpt>
      <trkpt lat="45.1873" lon="5.47828">
        <ele>317.11</ele>
        <time>2020-06-11T10:51:14.000Z</time>
      </trkpt>
      <trkpt lat="45.18729" lon="5.4785">
        <ele>315.3</ele>
        <time>2020-06-11T10:50:44.000Z</time>
      </trkpt>
      <trkpt lat="45.1874" lon="5.47862">
        <ele>312.63</ele>
        <time>2020-06-11T10:49:45.000Z</time>
      </trkpt>
      <trkpt lat="45.18745" lon="5.47883">
        <ele>315.98</ele>
        <time>2020-06-11T10:49:24.000Z</time>
      </trkpt>
      <trkpt lat="45.18745" lon="5.47876">
        <ele>314.13</ele>
        <time>2020-06-11T10:47:57.000Z</time>
      </trkpt>
      <trkpt lat="45.18738" lon="5.47864">
        <ele>313.23</ele>
        <time>2020-06-11T10:46:47.000Z</time>
      </trkpt>
      <trkpt lat="45.18742" lon="5.47855">
        <ele>311.23</ele>
        <time>2020-06-11T10:45:30.000Z</time>
      </trkpt>
      <trkpt lat="45.18724" lon="5.47858">
        <ele>317.4</ele>
        <time>2020-06-11T10:44:51.000Z</time>
      </trkpt>
      <trkpt lat="45.18732" lon="5.47841">
        <ele>314.16</ele>
        <time>2020-06-11T10:44:31.000Z</time>
      </trkpt>
      <trkpt lat="45.18733" lon="5.47816">
        <ele>320.51</ele>
        <time>2020-06-11T10:44:16.000Z</time>
      </trkpt>
      <trkpt lat="45.18727" lon="5.47794">
        <ele>334.71</ele>
        <time>2020-06-11T10:43:46.000Z</time>
      </trkpt>
      <trkpt lat="45.18714" lon="5.47805">
        <ele>333.16</ele>
        <time>2020-06-11T10:43:27.000Z</time>
      </trkpt>
      <trkpt lat="45.18701" lon="5.47825">
        <ele>331.14</ele>
        <time>2020-06-11T10:43:12.000Z</time>
      </trkpt>
      <trkpt lat="45.18687" lon="5.47851">
        <ele>333.31</ele>
        <time>2020-06-11T10:42:51.000Z</time>
      </trkpt>
      <trkpt lat="45.18683" lon="5.47871">
        <ele>332.74</ele>
        <time>2020-06-11T10:42:33.000Z</time>
      </trkpt>
      <trkpt lat="45.18676" lon="5.47896">
        <ele>333.15</ele>
        <time>2020-06-11T10:42:09.000Z</time>
      </trkpt>
      <trkpt lat="45.18662" lon="5.47906">
        <ele>335.27</ele>
        <time>2020-06-11T10:41:51.000Z</time>
      </trkpt>
      <trkpt lat="45.18647" lon="5.4791">
        <ele>338.35</ele>
        <time>2020-06-11T10:41:34.000Z</time>
      </trkpt>
      <trkpt lat="45.18629" lon="5.47904">
        <ele>343.37</ele>
        <time>2020-06-11T10:40:48.000Z</time>
      </trkpt>
      <trkpt lat="45.18619" lon="5.47885">
        <ele>348.4</ele>
        <time>2020-06-11T10:40:33.000Z</time>
      </trkpt>
      <trkpt lat="45.18609" lon="5.47869">
        <ele>353.51</ele>
        <time>2020-06-11T10:40:17.000Z</time>
      </trkpt>
      <trkpt lat="45.18587" lon="5.47867">
        <ele>358.14</ele>
        <time>2020-06-11T10:39:52.000Z</time>
      </trkpt>
      <trkpt lat="45.18575" lon="5.47878">
        <ele>358.64</ele>
        <time>2020-06-11T10:39:34.000Z</time>
      </trkpt>
      <trkpt lat="45.18561" lon="5.47887">
        <ele>358.82</ele>
        <time>2020-06-11T10:39:18.000Z</time>
      </trkpt>
      <trkpt lat="45.18537" lon="5.47892">
        <ele>360.31</ele>
        <time>2020-06-11T10:38:53.000Z</time>
      </trkpt>
      <trkpt lat="45.18519" lon="5.47894">
        <ele>362.19</ele>
        <time>2020-06-11T10:38:38.000Z</time>
      </trkpt>
      <trkpt lat="45.18501" lon="5.47907">
        <ele>364.78</ele>
        <time>2020-06-11T10:38:17.000Z</time>
      </trkpt>
      <trkpt lat="45.18488" lon="5.47918">
        <ele>367.11</ele>
        <time>2020-06-11T10:38:02.000Z</time>
      </trkpt>
      <trkpt lat="45.18475" lon="5.47935">
        <ele>368.79</ele>
        <time>2020-06-11T10:37:44.000Z</time>
      </trkpt>
      <trkpt lat="45.18465" lon="5.47962">
        <ele>368.66</ele>
        <time>2020-06-11T10:37:22.000Z</time>
      </trkpt>
      <trkpt lat="45.18457" lon="5.47983">
        <ele>369.58</ele>
        <time>2020-06-11T10:37:06.000Z</time>
      </trkpt>
      <trkpt lat="45.18447" lon="5.48">
        <ele>372.62</ele>
        <time>2020-06-11T10:36:49.000Z</time>
      </trkpt>
      <trkpt lat="45.18434" lon="5.48019">
        <ele>375.8</ele>
        <time>2020-06-11T10:36:21.000Z</time>
      </trkpt>
      <trkpt lat="45.18418" lon="5.48027">
        <ele>380.13</ele>
        <time>2020-06-11T10:35:51.000Z</time>
      </trkpt>
      <trkpt lat="45.18417" lon="5.47999">
        <ele>385.9</ele>
        <time>2020-06-11T10:35:27.000Z</time>
      </trkpt>
      <trkpt lat="45.18416" lon="5.47978">
        <ele>388.87</ele>
        <time>2020-06-11T10:35:12.000Z</time>
      </trkpt>
      <trkpt lat="45.18417" lon="5.47954">
        <ele>390.55</ele>
        <time>2020-06-11T10:34:57.000Z</time>
      </trkpt>
      <trkpt lat="45.18416" lon="5.47922">
        <ele>393.48</ele>
        <time>2020-06-11T10:34:37.000Z</time>
      </trkpt>
      <trkpt lat="45.18417" lon="5.47899">
        <ele>396.62</ele>
        <time>2020-06-11T10:34:22.000Z</time>
      </trkpt>
      <trkpt lat="45.18418" lon="5.47876">
        <ele>400.83</ele>
        <time>2020-06-11T10:34:04.000Z</time>
      </trkpt>
      <trkpt lat="45.18407" lon="5.4785">
        <ele>409.46</ele>
        <time>2020-06-11T10:33:43.000Z</time>
      </trkpt>
      <trkpt lat="45.18405" lon="5.47828">
        <ele>412.54</ele>
        <time>2020-06-11T10:33:26.000Z</time>
      </trkpt>
      <trkpt lat="45.18404" lon="5.47806">
        <ele>413.62</ele>
        <time>2020-06-11T10:33:08.000Z</time>
      </trkpt>
      <trkpt lat="45.18406" lon="5.47781">
        <ele>412.56</ele>
        <time>2020-06-11T10:32:27.000Z</time>
      </trkpt>
      <trkpt lat="45.18397" lon="5.47765">
        <ele>415.16</ele>
        <time>2020-06-11T10:32:12.000Z</time>
      </trkpt>
      <trkpt lat="45.18387" lon="5.47738">
        <ele>417.17</ele>
        <time>2020-06-11T10:31:52.000Z</time>
      </trkpt>
      <trkpt lat="45.18384" lon="5.47716">
        <ele>415.71</ele>
        <time>2020-06-11T10:31:37.000Z</time>
      </trkpt>
      <trkpt lat="45.18382" lon="5.4769">
        <ele>413.09</ele>
        <time>2020-06-11T10:31:22.000Z</time>
      </trkpt>
      <trkpt lat="45.18377" lon="5.47659">
        <ele>413.57</ele>
        <time>2020-06-11T10:31:01.000Z</time>
      </trkpt>
      <trkpt lat="45.18374" lon="5.47637">
        <ele>415.22</ele>
        <time>2020-06-11T10:30:46.000Z</time>
      </trkpt>
      <trkpt lat="45.18374" lon="5.47614">
        <ele>416.08</ele>
        <time>2020-06-11T10:30:28.000Z</time>
      </trkpt>
      <trkpt lat="45.18372" lon="5.47583">
        <ele>418.73</ele>
        <time>2020-06-11T10:30:08.000Z</time>
      </trkpt>
      <trkpt lat="45.18364" lon="5.47567">
        <ele>424.71</ele>
        <time>2020-06-11T10:29:52.000Z</time>
      </trkpt>
      <trkpt lat="45.18358" lon="5.47535">
        <ele>430.78</ele>
        <time>2020-06-11T10:29:27.000Z</time>
      </trkpt>
      <trkpt lat="45.18351" lon="5.47523">
        <ele>435.36</ele>
        <time>2020-06-11T10:29:07.000Z</time>
      </trkpt>
      <trkpt lat="45.1834" lon="5.47513">
        <ele>440.76</ele>
        <time>2020-06-11T10:28:49.000Z</time>
      </trkpt>
      <trkpt lat="45.18324" lon="5.47501">
        <ele>445.43</ele>
        <time>2020-06-11T10:28:27.000Z</time>
      </trkpt>
      <trkpt lat="45.1831" lon="5.47493">
        <ele>448.11</ele>
        <time>2020-06-11T10:28:11.000Z</time>
      </trkpt>
      <trkpt lat="45.18304" lon="5.47474">
        <ele>448.31</ele>
        <time>2020-06-11T10:27:55.000Z</time>
      </trkpt>
      <trkpt lat="45.18298" lon="5.47447">
        <ele>448.64</ele>
        <time>2020-06-11T10:27:35.000Z</time>
      </trkpt>
      <trkpt lat="45.18296" lon="5.47422">
        <ele>449.22</ele>
        <time>2020-06-11T10:27:20.000Z</time>
      </trkpt>
      <trkpt lat="45.18293" lon="5.47398">
        <ele>451.11</ele>
        <time>2020-06-11T10:27:05.000Z</time>
      </trkpt>
      <trkpt lat="45.18285" lon="5.47367">
        <ele>455.58</ele>
        <time>2020-06-11T10:26:45.000Z</time>
      </trkpt>
      <trkpt lat="45.18282" lon="5.47342">
        <ele>458.52</ele>
        <time>2020-06-11T10:26:29.000Z</time>
      </trkpt>
      <trkpt lat="45.18278" lon="5.47308">
        <ele>462.22</ele>
        <time>2020-06-11T10:26:08.000Z</time>
      </trkpt>
      <trkpt lat="45.18277" lon="5.47284">
        <ele>464.08</ele>
        <time>2020-06-11T10:25:52.000Z</time>
      </trkpt>
      <trkpt lat="45.18273" lon="5.47264">
        <ele>466.88</ele>
        <time>2020-06-11T10:25:35.000Z</time>
      </trkpt>
      <trkpt lat="45.18267" lon="5.47234">
        <ele>472.42</ele>
        <time>2020-06-11T10:25:14.000Z</time>
      </trkpt>
      <trkpt lat="45.18256" lon="5.47217">
        <ele>476.61</ele>
        <time>2020-06-11T10:24:59.000Z</time>
      </trkpt>
      <trkpt lat="45.18246" lon="5.47203">
        <ele>480.32</ele>
        <time>2020-06-11T10:24:41.000Z</time>
      </trkpt>
      <trkpt lat="45.18229" lon="5.47187">
        <ele>485.18</ele>
        <time>2020-06-11T10:24:21.000Z</time>
      </trkpt>
      <trkpt lat="45.18217" lon="5.47175">
        <ele>489.12</ele>
        <time>2020-06-11T10:24:06.000Z</time>
      </trkpt>
      <trkpt lat="45.182" lon="5.47179">
        <ele>491.01</ele>
        <time>2020-06-11T10:23:37.000Z</time>
      </trkpt>
      <trkpt lat="45.18198" lon="5.47199">
        <ele>489.41</ele>
        <time>2020-06-11T10:23:22.000Z</time>
      </trkpt>
      <trkpt lat="45.18204" lon="5.47218">
        <ele>486.71</ele>
        <time>2020-06-11T10:23:07.000Z</time>
      </trkpt>
      <trkpt lat="45.182" lon="5.47249">
        <ele>487.83</ele>
        <time>2020-06-11T10:22:47.000Z</time>
      </trkpt>
      <trkpt lat="45.1819" lon="5.47269">
        <ele>493.57</ele>
        <time>2020-06-11T10:22:32.000Z</time>
      </trkpt>
      <trkpt lat="45.18184" lon="5.47291">
        <ele>500.28</ele>
        <time>2020-06-11T10:22:09.000Z</time>
      </trkpt>
      <trkpt lat="45.18184" lon="5.47319">
        <ele>504.47</ele>
        <time>2020-06-11T10:21:44.000Z</time>
      </trkpt>
      <trkpt lat="45.18177" lon="5.47315">
        <ele>507.75</ele>
        <time>2020-06-11T10:21:21.000Z</time>
      </trkpt>
      <trkpt lat="45.18175" lon="5.47291">
        <ele>504.79</ele>
        <time>2020-06-11T10:21:06.000Z</time>
      </trkpt>
      <trkpt lat="45.18165" lon="5.47262">
        <ele>503.12</ele>
        <time>2020-06-11T10:20:45.000Z</time>
      </trkpt>
      <trkpt lat="45.18151" lon="5.47247">
        <ele>506.29</ele>
        <time>2020-06-11T10:20:30.000Z</time>
      </trkpt>
      <trkpt lat="45.1813" lon="5.47228">
        <ele>512.07</ele>
        <time>2020-06-11T10:20:10.000Z</time>
      </trkpt>
      <trkpt lat="45.18116" lon="5.47217">
        <ele>516.16</ele>
        <time>2020-06-11T10:19:53.000Z</time>
      </trkpt>
      <trkpt lat="45.18104" lon="5.47202">
        <ele>519.78</ele>
        <time>2020-06-11T10:19:36.000Z</time>
      </trkpt>
      <trkpt lat="45.18087" lon="5.47189">
        <ele>525.15</ele>
        <time>2020-06-11T10:19:09.000Z</time>
      </trkpt>
      <trkpt lat="45.18078" lon="5.47172">
        <ele>527.08</ele>
        <time>2020-06-11T10:18:50.000Z</time>
      </trkpt>
      <trkpt lat="45.1807" lon="5.47152">
        <ele>528.94</ele>
        <time>2020-06-11T10:18:32.000Z</time>
      </trkpt>
      <trkpt lat="45.18063" lon="5.47126">
        <ele>530.09</ele>
        <time>2020-06-11T10:18:09.000Z</time>
      </trkpt>
      <trkpt lat="45.18061" lon="5.47104">
        <ele>530.35</ele>
        <time>2020-06-11T10:17:38.000Z</time>
      </trkpt>
      <trkpt lat="45.18053" lon="5.4708">
        <ele>534.43</ele>
        <time>2020-06-11T10:17:14.000Z</time>
      </trkpt>
      <trkpt lat="45.18049" lon="5.47057">
        <ele>537.54</ele>
        <time>2020-06-11T10:16:58.000Z</time>
      </trkpt>
      <trkpt lat="45.18044" lon="5.47036">
        <ele>541.67</ele>
        <time>2020-06-11T10:16:40.000Z</time>
      </trkpt>
      <trkpt lat="45.18034" lon="5.47007">
        <ele>548.35</ele>
        <time>2020-06-11T10:16:19.000Z</time>
      </trkpt>
      <trkpt lat="45.18028" lon="5.46984">
        <ele>552.52</ele>
        <time>2020-06-11T10:16:02.000Z</time>
      </trkpt>
      <trkpt lat="45.18029" lon="5.46962">
        <ele>555.57</ele>
        <time>2020-06-11T10:15:44.000Z</time>
      </trkpt>
      <trkpt lat="45.18018" lon="5.46929">
        <ele>559.17</ele>
        <time>2020-06-11T10:15:22.000Z</time>
      </trkpt>
      <trkpt lat="45.18009" lon="5.4691">
        <ele>561.26</ele>
        <time>2020-06-11T10:15:06.000Z</time>
      </trkpt>
      <trkpt lat="45.17996" lon="5.46886">
        <ele>566.54</ele>
        <time>2020-06-11T10:14:42.000Z</time>
      </trkpt>
      <trkpt lat="45.17993" lon="5.4688">
        <ele>568.32</ele>
        <time>2020-06-11T10:14:21.000Z</time>
      </trkpt>
      <trkpt lat="45.18012" lon="5.46885">
        <ele>568.01</ele>
        <time>2020-06-11T10:14:04.000Z</time>
      </trkpt>
      <trkpt lat="45.18032" lon="5.4689">
        <ele>573.71</ele>
        <time>2020-06-11T10:13:40.000Z</time>
      </trkpt>
      <trkpt lat="45.18042" lon="5.46875">
        <ele>583.58</ele>
        <time>2020-06-11T10:13:23.000Z</time>
      </trkpt>
      <trkpt lat="45.1803" lon="5.46861">
        <ele>582.92</ele>
        <time>2020-06-11T10:13:05.000Z</time>
      </trkpt>
      <trkpt lat="45.18013" lon="5.46844">
        <ele>581.96</ele>
        <time>2020-06-11T10:12:43.000Z</time>
      </trkpt>
      <trkpt lat="45.18001" lon="5.46832">
        <ele>583.68</ele>
        <time>2020-06-11T10:12:24.000Z</time>
      </trkpt>
      <trkpt lat="45.17995" lon="5.46812">
        <ele>590.83</ele>
        <time>2020-06-11T10:12:09.000Z</time>
      </trkpt>
      <trkpt lat="45.17986" lon="5.46792">
        <ele>598.82</ele>
        <time>2020-06-11T10:11:16.000Z</time>
      </trkpt>
      <trkpt lat="45.17972" lon="5.46782">
        <ele>603.07</ele>
        <time>2020-06-11T10:10:58.000Z</time>
      </trkpt>
      <trkpt lat="45.17963" lon="5.46756">
        <ele>613.22</ele>
        <time>2020-06-11T10:10:35.000Z</time>
      </trkpt>
      <trkpt lat="45.17957" lon="5.46736">
        <ele>617.68</ele>
        <time>2020-06-11T10:10:18.000Z</time>
      </trkpt>
      <trkpt lat="45.17948" lon="5.46719">
        <ele>618.86</ele>
        <time>2020-06-11T10:10:00.000Z</time>
      </trkpt>
      <trkpt lat="45.17931" lon="5.46706">
        <ele>618.88</ele>
        <time>2020-06-11T10:09:38.000Z</time>
      </trkpt>
      <trkpt lat="45.17937" lon="5.46691">
        <ele>619.54</ele>
        <time>2020-06-11T10:09:18.000Z</time>
      </trkpt>
      <trkpt lat="45.17957" lon="5.46695">
        <ele>622.11</ele>
        <time>2020-06-11T10:09:00.000Z</time>
      </trkpt>
      <trkpt lat="45.1798" lon="5.46703">
        <ele>626.69</ele>
        <time>2020-06-11T10:08:34.000Z</time>
      </trkpt>
      <trkpt lat="45.17992" lon="5.4671">
        <ele>628.22</ele>
        <time>2020-06-11T10:08:16.000Z</time>
      </trkpt>
      <trkpt lat="45.18" lon="5.46691">
        <ele>635.14</ele>
        <time>2020-06-11T10:07:48.000Z</time>
      </trkpt>
      <trkpt lat="45.17992" lon="5.46675">
        <ele>637.62</ele>
        <time>2020-06-11T10:07:33.000Z</time>
      </trkpt>
      <trkpt lat="45.1799" lon="5.46666">
        <ele>640.02</ele>
        <time>2020-06-11T10:07:03.000Z</time>
      </trkpt>
      <trkpt lat="45.18009" lon="5.4668">
        <ele>641.44</ele>
        <time>2020-06-11T10:06:42.000Z</time>
      </trkpt>
      <trkpt lat="45.18024" lon="5.4668">
        <ele>647.24</ele>
        <time>2020-06-11T10:06:18.000Z</time>
      </trkpt>
      <trkpt lat="45.18041" lon="5.46676">
        <ele>655.91</ele>
        <time>2020-06-11T10:05:59.000Z</time>
      </trkpt>
      <trkpt lat="45.18059" lon="5.46676">
        <ele>663.13</ele>
        <time>2020-06-11T10:05:33.000Z</time>
      </trkpt>
      <trkpt lat="45.18073" lon="5.46681">
        <ele>665.13</ele>
        <time>2020-06-11T10:05:03.000Z</time>
      </trkpt>
      <trkpt lat="45.18088" lon="5.46681">
        <ele>666.9</ele>
        <time>2020-06-11T10:04:46.000Z</time>
      </trkpt>
      <trkpt lat="45.1809" lon="5.46659">
        <ele>674.88</ele>
        <time>2020-06-11T10:04:19.000Z</time>
      </trkpt>
      <trkpt lat="45.18096" lon="5.46646">
        <ele>678.62</ele>
        <time>2020-06-11T10:04:03.000Z</time>
      </trkpt>
      <trkpt lat="45.18091" lon="5.46624">
        <ele>687.33</ele>
        <time>2020-06-11T10:03:36.000Z</time>
      </trkpt>
      <trkpt lat="45.1809" lon="5.4661">
        <ele>692.5</ele>
        <time>2020-06-11T10:03:14.000Z</time>
      </trkpt>
      <trkpt lat="45.18098" lon="5.46591">
        <ele>698.02</ele>
        <time>2020-06-11T10:02:58.000Z</time>
      </trkpt>
      <trkpt lat="45.1811" lon="5.46565">
        <ele>703.76</ele>
        <time>2020-06-11T10:02:20.000Z</time>
      </trkpt>
      <trkpt lat="45.18115" lon="5.46547">
        <ele>707.65</ele>
        <time>2020-06-11T10:02:04.000Z</time>
      </trkpt>
      <trkpt lat="45.18124" lon="5.46529">
        <ele>710.83</ele>
        <time>2020-06-11T10:01:45.000Z</time>
      </trkpt>
      <trkpt lat="45.18137" lon="5.46506">
        <ele>717.15</ele>
        <time>2020-06-11T10:01:16.000Z</time>
      </trkpt>
      <trkpt lat="45.18141" lon="5.46486">
        <ele>724.54</ele>
        <time>2020-06-11T10:00:56.000Z</time>
      </trkpt>
      <trkpt lat="45.18124" lon="5.46495">
        <ele>721.9</ele>
        <time>2020-06-11T10:00:35.000Z</time>
      </trkpt>
      <trkpt lat="45.18117" lon="5.46491">
        <ele>723.57</ele>
        <time>2020-06-11T09:59:57.000Z</time>
      </trkpt>
      <trkpt lat="45.18112" lon="5.46469">
        <ele>731.89</ele>
        <time>2020-06-11T09:59:38.000Z</time>
      </trkpt>
      <trkpt lat="45.18096" lon="5.46453">
        <ele>737.32</ele>
        <time>2020-06-11T09:59:14.000Z</time>
      </trkpt>
      <trkpt lat="45.18092" lon="5.46436">
        <ele>743.13</ele>
        <time>2020-06-11T09:58:49.000Z</time>
      </trkpt>
      <trkpt lat="45.18108" lon="5.46426">
        <ele>748.78</ele>
        <time>2020-06-11T09:58:23.000Z</time>
      </trkpt>
      <trkpt lat="45.18126" lon="5.46413">
        <ele>755.9</ele>
        <time>2020-06-11T09:57:53.000Z</time>
      </trkpt>
      <trkpt lat="45.18126" lon="5.46396">
        <ele>764.12</ele>
        <time>2020-06-11T09:57:36.000Z</time>
      </trkpt>
      <trkpt lat="45.18115" lon="5.46383">
        <ele>768.69</ele>
        <time>2020-06-11T09:57:17.000Z</time>
      </trkpt>
      <trkpt lat="45.181" lon="5.46363">
        <ele>774.48</ele>
        <time>2020-06-11T09:56:53.000Z</time>
      </trkpt>
      <trkpt lat="45.18092" lon="5.46346">
        <ele>778.87</ele>
        <time>2020-06-11T09:56:36.000Z</time>
      </trkpt>
      <trkpt lat="45.18081" lon="5.46321">
        <ele>784.88</ele>
        <time>2020-06-11T09:56:12.000Z</time>
      </trkpt>
      <trkpt lat="45.18073" lon="5.46304">
        <ele>789.47</ele>
        <time>2020-06-11T09:55:55.000Z</time>
      </trkpt>
      <trkpt lat="45.18065" lon="5.46285">
        <ele>794.49</ele>
        <time>2020-06-11T09:55:38.000Z</time>
      </trkpt>
      <trkpt lat="45.18047" lon="5.46267">
        <ele>796.4</ele>
        <time>2020-06-11T09:55:16.000Z</time>
      </trkpt>
      <trkpt lat="45.18035" lon="5.4625">
        <ele>798.3</ele>
        <time>2020-06-11T09:54:54.000Z</time>
      </trkpt>
      <trkpt lat="45.1802" lon="5.46232">
        <ele>800.13</ele>
        <time>2020-06-11T09:54:39.000Z</time>
      </trkpt>
      <trkpt lat="45.18001" lon="5.46215">
        <ele>803.88</ele>
        <time>2020-06-11T09:54:01.000Z</time>
      </trkpt>
      <trkpt lat="45.17988" lon="5.4621">
        <ele>806.18</ele>
        <time>2020-06-11T09:53:40.000Z</time>
      </trkpt>
      <trkpt lat="45.17979" lon="5.46195">
        <ele>811.25</ele>
        <time>2020-06-11T09:53:16.000Z</time>
      </trkpt>
      <trkpt lat="45.17972" lon="5.46176">
        <ele>815.84</ele>
        <time>2020-06-11T09:52:57.000Z</time>
      </trkpt>
      <trkpt lat="45.17968" lon="5.46155">
        <ele>816.91</ele>
        <time>2020-06-11T09:52:41.000Z</time>
      </trkpt>
      <trkpt lat="45.17953" lon="5.46132">
        <ele>817.81</ele>
        <time>2020-06-11T09:52:21.000Z</time>
      </trkpt>
      <trkpt lat="45.17937" lon="5.46119">
        <ele>820.45</ele>
        <time>2020-06-11T09:52:06.000Z</time>
      </trkpt>
      <trkpt lat="45.17928" lon="5.46102">
        <ele>819.21</ele>
        <time>2020-06-11T09:51:49.000Z</time>
      </trkpt>
      <trkpt lat="45.17911" lon="5.46081">
        <ele>819.34</ele>
        <time>2020-06-11T09:51:29.000Z</time>
      </trkpt>
      <trkpt lat="45.17897" lon="5.46069">
        <ele>820.17</ele>
        <time>2020-06-11T09:51:14.000Z</time>
      </trkpt>
      <trkpt lat="45.17882" lon="5.46058">
        <ele>821.5</ele>
        <time>2020-06-11T09:50:55.000Z</time>
      </trkpt>
      <trkpt lat="45.17866" lon="5.46038">
        <ele>820.23</ele>
        <time>2020-06-11T09:50:33.000Z</time>
      </trkpt>
      <trkpt lat="45.17854" lon="5.46025">
        <ele>820.15</ele>
        <time>2020-06-11T09:50:18.000Z</time>
      </trkpt>
      <trkpt lat="45.17836" lon="5.46003">
        <ele>818.98</ele>
        <time>2020-06-11T09:49:58.000Z</time>
      </trkpt>
      <trkpt lat="45.17823" lon="5.45987">
        <ele>817.27</ele>
        <time>2020-06-11T09:49:42.000Z</time>
      </trkpt>
      <trkpt lat="45.17811" lon="5.45969">
        <ele>812.8</ele>
        <time>2020-06-11T09:49:27.000Z</time>
      </trkpt>
      <trkpt lat="45.17795" lon="5.45946">
        <ele>808.3</ele>
        <time>2020-06-11T09:49:07.000Z</time>
      </trkpt>
      <trkpt lat="45.17783" lon="5.45927">
        <ele>806.14</ele>
        <time>2020-06-11T09:48:52.000Z</time>
      </trkpt>
      <trkpt lat="45.17769" lon="5.4591">
        <ele>806.65</ele>
        <time>2020-06-11T09:48:36.000Z</time>
      </trkpt>
      <trkpt lat="45.17752" lon="5.45886">
        <ele>805.99</ele>
        <time>2020-06-11T09:48:15.000Z</time>
      </trkpt>
      <trkpt lat="45.17739" lon="5.45873">
        <ele>806.15</ele>
        <time>2020-06-11T09:47:58.000Z</time>
      </trkpt>
      <trkpt lat="45.17724" lon="5.45848">
        <ele>804.95</ele>
        <time>2020-06-11T09:47:35.000Z</time>
      </trkpt>
      <trkpt lat="45.17713" lon="5.45836">
        <ele>805.88</ele>
        <time>2020-06-11T09:47:19.000Z</time>
      </trkpt>
      <trkpt lat="45.177" lon="5.45825">
        <ele>807.86</ele>
        <time>2020-06-11T09:47:04.000Z</time>
      </trkpt>
      <trkpt lat="45.17682" lon="5.45807">
        <ele>811.63</ele>
        <time>2020-06-11T09:46:44.000Z</time>
      </trkpt>
      <trkpt lat="45.17667" lon="5.45792">
        <ele>815.08</ele>
        <time>2020-06-11T09:46:29.000Z</time>
      </trkpt>
      <trkpt lat="45.17658" lon="5.45775">
        <ele>816.83</ele>
        <time>2020-06-11T09:46:04.000Z</time>
      </trkpt>
      <trkpt lat="45.17642" lon="5.45761">
        <ele>819.09</ele>
        <time>2020-06-11T09:45:41.000Z</time>
      </trkpt>
      <trkpt lat="45.17633" lon="5.45744">
        <ele>819.69</ele>
        <time>2020-06-11T09:45:20.000Z</time>
      </trkpt>
      <trkpt lat="45.17623" lon="5.4573">
        <ele>820.33</ele>
        <time>2020-06-11T09:44:59.000Z</time>
      </trkpt>
      <trkpt lat="45.17611" lon="5.45712">
        <ele>822.16</ele>
        <time>2020-06-11T09:44:29.000Z</time>
      </trkpt>
      <trkpt lat="45.17594" lon="5.45707">
        <ele>825.33</ele>
        <time>2020-06-11T09:44:10.000Z</time>
      </trkpt>
      <trkpt lat="45.17576" lon="5.45699">
        <ele>829.8</ele>
        <time>2020-06-11T09:43:43.000Z</time>
      </trkpt>
      <trkpt lat="45.1756" lon="5.45689">
        <ele>834.52</ele>
        <time>2020-06-11T09:43:25.000Z</time>
      </trkpt>
      <trkpt lat="45.17548" lon="5.45672">
        <ele>839.34</ele>
        <time>2020-06-11T09:43:09.000Z</time>
      </trkpt>
      <trkpt lat="45.17533" lon="5.45653">
        <ele>844.17</ele>
        <time>2020-06-11T09:42:48.000Z</time>
      </trkpt>
      <trkpt lat="45.17521" lon="5.45638">
        <ele>847.27</ele>
        <time>2020-06-11T09:42:32.000Z</time>
      </trkpt>
      <trkpt lat="45.17511" lon="5.4562">
        <ele>849.28</ele>
        <time>2020-06-11T09:42:11.000Z</time>
      </trkpt>
      <trkpt lat="45.17495" lon="5.45601">
        <ele>853.07</ele>
        <time>2020-06-11T09:41:42.000Z</time>
      </trkpt>
      <trkpt lat="45.17496" lon="5.4558">
        <ele>851.25</ele>
        <time>2020-06-11T09:41:26.000Z</time>
      </trkpt>
      <trkpt lat="45.17491" lon="5.4555">
        <ele>852.42</ele>
        <time>2020-06-11T09:41:03.000Z</time>
      </trkpt>
      <trkpt lat="45.17487" lon="5.45528">
        <ele>853.91</ele>
        <time>2020-06-11T09:40:43.000Z</time>
      </trkpt>
      <trkpt lat="45.17487" lon="5.45506">
        <ele>853.32</ele>
        <time>2020-06-11T09:40:27.000Z</time>
      </trkpt>
      <trkpt lat="45.17483" lon="5.45477">
        <ele>853.95</ele>
        <time>2020-06-11T09:40:07.000Z</time>
      </trkpt>
      <trkpt lat="45.17483" lon="5.45454">
        <ele>852.4</ele>
        <time>2020-06-11T09:39:47.000Z</time>
      </trkpt>
      <trkpt lat="45.17474" lon="5.45434">
        <ele>855.58</ele>
        <time>2020-06-11T09:39:31.000Z</time>
      </trkpt>
      <trkpt lat="45.1746" lon="5.45412">
        <ele>862.14</ele>
        <time>2020-06-11T09:39:05.000Z</time>
      </trkpt>
      <trkpt lat="45.17449" lon="5.45394">
        <ele>866.88</ele>
        <time>2020-06-11T09:38:49.000Z</time>
      </trkpt>
      <trkpt lat="45.17437" lon="5.45372">
        <ele>870.59</ele>
        <time>2020-06-11T09:38:28.000Z</time>
      </trkpt>
      <trkpt lat="45.17423" lon="5.4535">
        <ele>872.62</ele>
        <time>2020-06-11T09:38:13.000Z</time>
      </trkpt>
      <trkpt lat="45.17409" lon="5.45333">
        <ele>874.78</ele>
        <time>2020-06-11T09:37:57.000Z</time>
      </trkpt>
      <trkpt lat="45.17395" lon="5.45306">
        <ele>877.38</ele>
        <time>2020-06-11T09:37:37.000Z</time>
      </trkpt>
      <trkpt lat="45.17388" lon="5.45289">
        <ele>878.72</ele>
        <time>2020-06-11T09:37:17.000Z</time>
      </trkpt>
      <trkpt lat="45.17382" lon="5.45271">
        <ele>880.3</ele>
        <time>2020-06-11T09:36:57.000Z</time>
      </trkpt>
      <trkpt lat="45.17367" lon="5.45247">
        <ele>883.79</ele>
        <time>2020-06-11T09:36:37.000Z</time>
      </trkpt>
      <trkpt lat="45.17355" lon="5.45227">
        <ele>885.9</ele>
        <time>2020-06-11T09:36:21.000Z</time>
      </trkpt>
      <trkpt lat="45.17344" lon="5.45212">
        <ele>887.04</ele>
        <time>2020-06-11T09:36:05.000Z</time>
      </trkpt>
      <trkpt lat="45.17324" lon="5.452">
        <ele>888.43</ele>
        <time>2020-06-11T09:35:36.000Z</time>
      </trkpt>
      <trkpt lat="45.17312" lon="5.45185">
        <ele>889.09</ele>
        <time>2020-06-11T09:35:16.000Z</time>
      </trkpt>
      <trkpt lat="45.1729" lon="5.45166">
        <ele>891.64</ele>
        <time>2020-06-11T09:34:54.000Z</time>
      </trkpt>
      <trkpt lat="45.17278" lon="5.45147">
        <ele>893.55</ele>
        <time>2020-06-11T09:34:36.000Z</time>
      </trkpt>
      <trkpt lat="45.17261" lon="5.4514">
        <ele>895.4</ele>
        <time>2020-06-11T09:34:09.000Z</time>
      </trkpt>
      <trkpt lat="45.17241" lon="5.45126">
        <ele>897.88</ele>
        <time>2020-06-11T09:33:47.000Z</time>
      </trkpt>
      <trkpt lat="45.17239" lon="5.45134">
        <ele>898.29</ele>
        <time>2020-06-11T09:32:59.000Z</time>
      </trkpt>
      <trkpt lat="45.17234" lon="5.45119">
        <ele>899.16</ele>
        <time>2020-06-11T09:32:36.000Z</time>
      </trkpt>
      <trkpt lat="45.17255" lon="5.45106">
        <ele>897.71</ele>
        <time>2020-06-11T09:32:11.000Z</time>
      </trkpt>
      <trkpt lat="45.1727" lon="5.451">
        <ele>898.51</ele>
        <time>2020-06-11T09:31:52.000Z</time>
      </trkpt>
      <trkpt lat="45.17289" lon="5.45093">
        <ele>901.39</ele>
        <time>2020-06-11T09:31:29.000Z</time>
      </trkpt>
      <trkpt lat="45.17305" lon="5.45088">
        <ele>905.04</ele>
        <time>2020-06-11T09:31:13.000Z</time>
      </trkpt>
      <trkpt lat="45.17323" lon="5.45087">
        <ele>908.15</ele>
        <time>2020-06-11T09:30:58.000Z</time>
      </trkpt>
      <trkpt lat="45.17346" lon="5.45086">
        <ele>912.17</ele>
        <time>2020-06-11T09:30:36.000Z</time>
      </trkpt>
      <trkpt lat="45.17363" lon="5.45091">
        <ele>912.73</ele>
        <time>2020-06-11T09:30:21.000Z</time>
      </trkpt>
      <trkpt lat="45.17377" lon="5.45103">
        <ele>911.22</ele>
        <time>2020-06-11T09:30:06.000Z</time>
      </trkpt>
      <trkpt lat="45.17397" lon="5.45118">
        <ele>910.25</ele>
        <time>2020-06-11T09:29:38.000Z</time>
      </trkpt>
      <trkpt lat="45.17411" lon="5.45125">
        <ele>911.39</ele>
        <time>2020-06-11T09:29:21.000Z</time>
      </trkpt>
      <trkpt lat="45.17429" lon="5.45127">
        <ele>915.8</ele>
        <time>2020-06-11T09:29:06.000Z</time>
      </trkpt>
      <trkpt lat="45.1745" lon="5.4513">
        <ele>921.89</ele>
        <time>2020-06-11T09:28:45.000Z</time>
      </trkpt>
      <trkpt lat="45.17462" lon="5.45142">
        <ele>922.36</ele>
        <time>2020-06-11T09:28:25.000Z</time>
      </trkpt>
      <trkpt lat="45.1745" lon="5.45132">
        <ele>921.56</ele>
        <time>2020-06-11T09:27:57.000Z</time>
      </trkpt>
      <trkpt lat="45.17448" lon="5.45111">
        <ele>927.28</ele>
        <time>2020-06-11T09:27:39.000Z</time>
      </trkpt>
      <trkpt lat="45.17436" lon="5.45098">
        <ele>927.2</ele>
        <time>2020-06-11T09:27:20.000Z</time>
      </trkpt>
      <trkpt lat="45.17421" lon="5.45082">
        <ele>927.63</ele>
        <time>2020-06-11T09:26:56.000Z</time>
      </trkpt>
      <trkpt lat="45.17408" lon="5.45066">
        <ele>930.06</ele>
        <time>2020-06-11T09:26:39.000Z</time>
      </trkpt>
      <trkpt lat="45.17395" lon="5.45048">
        <ele>933.95</ele>
        <time>2020-06-11T09:26:24.000Z</time>
      </trkpt>
      <trkpt lat="45.17393" lon="5.45019">
        <ele>944.83</ele>
        <time>2020-06-11T09:25:57.000Z</time>
      </trkpt>
      <trkpt lat="45.17381" lon="5.45006">
        <ele>946.44</ele>
        <time>2020-06-11T09:25:42.000Z</time>
      </trkpt>
      <trkpt lat="45.17365" lon="5.44988">
        <ele>949.36</ele>
        <time>2020-06-11T09:25:21.000Z</time>
      </trkpt>
      <trkpt lat="45.17354" lon="5.44971">
        <ele>954.01</ele>
        <time>2020-06-11T09:25:03.000Z</time>
      </trkpt>
      <trkpt lat="45.17339" lon="5.44961">
        <ele>954.65</ele>
        <time>2020-06-11T09:24:48.000Z</time>
      </trkpt>
      <trkpt lat="45.1732" lon="5.44948">
        <ele>955.81</ele>
        <time>2020-06-11T09:24:28.000Z</time>
      </trkpt>
      <trkpt lat="45.17306" lon="5.44935">
        <ele>956.68</ele>
        <time>2020-06-11T09:24:13.000Z</time>
      </trkpt>
      <trkpt lat="45.17291" lon="5.44921">
        <ele>957</ele>
        <time>2020-06-11T09:23:56.000Z</time>
      </trkpt>
      <trkpt lat="45.17268" lon="5.44903">
        <ele>956.92</ele>
        <time>2020-06-11T09:23:36.000Z</time>
      </trkpt>
      <trkpt lat="45.17253" lon="5.44894">
        <ele>957</ele>
        <time>2020-06-11T09:23:19.000Z</time>
      </trkpt>
      <trkpt lat="45.1724" lon="5.44883">
        <ele>958.22</ele>
        <time>2020-06-11T09:23:03.000Z</time>
      </trkpt>
      <trkpt lat="45.17218" lon="5.44884">
        <ele>957.22</ele>
        <time>2020-06-11T09:22:43.000Z</time>
      </trkpt>
      <trkpt lat="45.17202" lon="5.44888">
        <ele>956.88</ele>
        <time>2020-06-11T09:22:28.000Z</time>
      </trkpt>
      <trkpt lat="45.17178" lon="5.4489">
        <ele>957.8</ele>
        <time>2020-06-11T09:22:08.000Z</time>
      </trkpt>
      <trkpt lat="45.17158" lon="5.44894">
        <ele>959.07</ele>
        <time>2020-06-11T09:21:53.000Z</time>
      </trkpt>
      <trkpt lat="45.1714" lon="5.44892">
        <ele>960.5</ele>
        <time>2020-06-11T09:21:38.000Z</time>
      </trkpt>
      <trkpt lat="45.17107" lon="5.44889">
        <ele>963.82</ele>
        <time>2020-06-11T09:21:18.000Z</time>
      </trkpt>
      <trkpt lat="45.17079" lon="5.44886">
        <ele>966.58</ele>
        <time>2020-06-11T09:21:03.000Z</time>
      </trkpt>
      <trkpt lat="45.17063" lon="5.44879">
        <ele>967.5</ele>
        <time>2020-06-11T09:20:44.000Z</time>
      </trkpt>
      <trkpt lat="45.17041" lon="5.44867">
        <ele>968.74</ele>
        <time>2020-06-11T09:20:23.000Z</time>
      </trkpt>
      <trkpt lat="45.17028" lon="5.44859">
        <ele>969.31</ele>
        <time>2020-06-11T09:20:07.000Z</time>
      </trkpt>
      <trkpt lat="45.17007" lon="5.44851">
        <ele>971.13</ele>
        <time>2020-06-11T09:19:42.000Z</time>
      </trkpt>
      <trkpt lat="45.16991" lon="5.44844">
        <ele>972</ele>
        <time>2020-06-11T09:19:25.000Z</time>
      </trkpt>
      <trkpt lat="45.16976" lon="5.4482">
        <ele>971.5</ele>
      </trkpt>
      <trkpt lat="45.16955" lon="5.44797">
        <ele>971.1</ele>
      </trkpt>
      <trkpt lat="45.16945" lon="5.44786">
        <ele>971.1</ele>
      </trkpt>
      <trkpt lat="45.16937" lon="5.44774">
        <ele>970.3</ele>
      </trkpt>
      <trkpt lat="45.1693" lon="5.44765">
        <ele>969.6</ele>
      </trkpt>
      <trkpt lat="45.16923" lon="5.44756">
        <ele>969</ele>
      </trkpt>
      <trkpt lat="45.16915" lon="5.44748">
        <ele>968.9</ele>
      </trkpt>
      <trkpt lat="45.16908" lon="5.44739">
        <ele>968.3</ele>
      </trkpt>
      <trkpt lat="45.16901" lon="5.4473">
        <ele>967.7</ele>
      </trkpt>
      <trkpt lat="45.16897" lon="5.44721">
        <ele>966.7</ele>
      </trkpt>
      <trkpt lat="45.16892" lon="5.44711">
        <ele>966.3</ele>
      </trkpt>
      <trkpt lat="45.16889" lon="5.447">
        <ele>965.6</ele>
      </trkpt>
      <trkpt lat="45.16887" lon="5.44693">
        <ele>964.8</ele>
      </trkpt>
      <trkpt lat="45.16886" lon="5.44684">
        <ele>963.9</ele>
      </trkpt>
      <trkpt lat="45.16885" lon="5.44675">
        <ele>962.9</ele>
      </trkpt>
      <trkpt lat="45.16882" lon="5.44647">
        <ele>959.5</ele>
      </trkpt>
      <trkpt lat="45.16887" lon="5.4463">
        <ele>957.9</ele>
      </trkpt>
      <trkpt lat="45.16891" lon="5.44616">
        <ele>956.6</ele>
      </trkpt>
      <trkpt lat="45.16896" lon="5.44604">
        <ele>955.7</ele>
      </trkpt>
      <trkpt lat="45.16898" lon="5.44594">
        <ele>955.1</ele>
      </trkpt>
      <trkpt lat="45.16901" lon="5.44584">
        <ele>954.8</ele>
      </trkpt>
      <trkpt lat="45.16903" lon="5.44573">
        <ele>954.3</ele>
      </trkpt>
      <trkpt lat="45.16905" lon="5.44564">
        <ele>954</ele>
      </trkpt>
      <trkpt lat="45.16906" lon="5.44554">
        <ele>953.6</ele>
      </trkpt>
      <trkpt lat="45.16906" lon="5.44547">
        <ele>953.2</ele>
      </trkpt>
      <trkpt lat="45.16906" lon="5.44538">
        <ele>952.6</ele>
      </trkpt>
      <trkpt lat="45.16906" lon="5.44532">
        <ele>952.2</ele>
      </trkpt>
      <trkpt lat="45.16907" lon="5.44527">
        <ele>952.2</ele>
      </trkpt>
      <trkpt lat="45.16908" lon="5.4452">
        <ele>951.9</ele>
      </trkpt>
      <trkpt lat="45.16911" lon="5.44512">
        <ele>952.1</ele>
      </trkpt>
      <trkpt lat="45.16913" lon="5.44504">
        <ele>952.1</ele>
      </trkpt>
      <trkpt lat="45.16916" lon="5.44497">
        <ele>952.6</ele>
      </trkpt>
      <trkpt lat="45.16919" lon="5.4449">
        <ele>952.9</ele>
      </trkpt>
      <trkpt lat="45.16922" lon="5.44483">
        <ele>953.2</ele>
      </trkpt>
      <trkpt lat="45.16925" lon="5.44473">
        <ele>953.4</ele>
      </trkpt>
      <trkpt lat="45.16926" lon="5.44462">
        <ele>953.2</ele>
      </trkpt>
      <trkpt lat="45.16926" lon="5.44453">
        <ele>952.8</ele>
      </trkpt>
      <trkpt lat="45.16925" lon="5.44441">
        <ele>951.8</ele>
      </trkpt>
      <trkpt lat="45.16923" lon="5.44429">
        <ele>950.4</ele>
      </trkpt>
      <trkpt lat="45.16919" lon="5.44417">
        <ele>948</ele>
      </trkpt>
      <trkpt lat="45.16916" lon="5.44403">
        <ele>946.2</ele>
      </trkpt>
      <trkpt lat="45.16914" lon="5.44391">
        <ele>944.6</ele>
      </trkpt>
      <trkpt lat="45.16912" lon="5.44377">
        <ele>943.9</ele>
      </trkpt>
      <trkpt lat="45.16909" lon="5.44365">
        <ele>942.7</ele>
      </trkpt>
      <trkpt lat="45.16905" lon="5.44356">
        <ele>941.1</ele>
      </trkpt>
      <trkpt lat="45.169" lon="5.44349">
        <ele>938.9</ele>
      </trkpt>
      <trkpt lat="45.16894" lon="5.44338">
        <ele>936.4</ele>
      </trkpt>
      <trkpt lat="45.16885" lon="5.44323">
        <ele>932.9</ele>
      </trkpt>
      <trkpt lat="45.16881" lon="5.44311">
        <ele>931.9</ele>
      </trkpt>
      <trkpt lat="45.16879" lon="5.44297">
        <ele>931.9</ele>
      </trkpt>
      <trkpt lat="45.16879" lon="5.44282">
        <ele>933</ele>
      </trkpt>
      <trkpt lat="45.16879" lon="5.44267">
        <ele>932</ele>
      </trkpt>
      <trkpt lat="45.1688" lon="5.44251">
        <ele>930.6</ele>
      </trkpt>
      <trkpt lat="45.1688" lon="5.44241">
        <ele>930.4</ele>
      </trkpt>
      <trkpt lat="45.1688" lon="5.44235">
        <ele>930.3</ele>
      </trkpt>
      <trkpt lat="45.16878" lon="5.44228">
        <ele>929.3</ele>
      </trkpt>
      <trkpt lat="45.16876" lon="5.44221">
        <ele>928.5</ele>
      </trkpt>
      <trkpt lat="45.16871" lon="5.4421">
        <ele>926.8</ele>
      </trkpt>
      <trkpt lat="45.16866" lon="5.44197">
        <ele>925.6</ele>
      </trkpt>
      <trkpt lat="45.16861" lon="5.44187">
        <ele>924.5</ele>
      </trkpt>
      <trkpt lat="45.16857" lon="5.4418">
        <ele>923.7</ele>
      </trkpt>
      <trkpt lat="45.16855" lon="5.44174">
        <ele>923.6</ele>
      </trkpt>
      <trkpt lat="45.16853" lon="5.44168">
        <ele>923.5</ele>
      </trkpt>
      <trkpt lat="45.16852" lon="5.44161">
        <ele>923.7</ele>
      </trkpt>
      <trkpt lat="45.16852" lon="5.44155">
        <ele>924.1</ele>
      </trkpt>
      <trkpt lat="45.16852" lon="5.44149">
        <ele>924.4</ele>
      </trkpt>
      <trkpt lat="45.16852" lon="5.44145">
        <ele>924.7</ele>
      </trkpt>
      <trkpt lat="45.16857" lon="5.44147">
        <ele>925.7</ele>
        <extensions>
          <visugpx:TrkExtension xmlns:visugpx="https://www.visugpx.com/editgpx/">
            <visugpx:node>2</visugpx:node>
            </visugpx:TrkExtension>
        </extensions>
      </trkpt>
      <trkpt lat="45.16852" lon="5.44145">
        <ele>924.7</ele>
      </trkpt>
      <trkpt lat="45.16847" lon="5.44137">
        <ele>924.1</ele>
      </trkpt>
      <trkpt lat="45.16844" lon="5.44132">
        <ele>923.9</ele>
      </trkpt>
      <trkpt lat="45.16841" lon="5.44123">
        <ele>924.1</ele>
      </trkpt>
      <trkpt lat="45.16835" lon="5.44113">
        <ele>924</ele>
      </trkpt>
      <trkpt lat="45.16832" lon="5.44107">
        <ele>924</ele>
      </trkpt>
      <trkpt lat="45.16828" lon="5.441">
        <ele>923.9</ele>
      </trkpt>
      <trkpt lat="45.16822" lon="5.44093">
        <ele>923.8</ele>
      </trkpt>
      <trkpt lat="45.16819" lon="5.44089">
        <ele>924</ele>
      </trkpt>
      <trkpt lat="45.16816" lon="5.44087">
        <ele>924</ele>
      </trkpt>
      <trkpt lat="45.16813" lon="5.44086">
        <ele>924</ele>
      </trkpt>
      <trkpt lat="45.16809" lon="5.44086">
        <ele>923.8</ele>
      </trkpt>
      <trkpt lat="45.16805" lon="5.44087">
        <ele>923.4</ele>
      </trkpt>
      <trkpt lat="45.16803" lon="5.44089">
        <ele>923.1</ele>
      </trkpt>
      <trkpt lat="45.16801" lon="5.44092">
        <ele>922.5</ele>
      </trkpt>
      <trkpt lat="45.168" lon="5.44096">
        <ele>921.8</ele>
      </trkpt>
      <trkpt lat="45.168" lon="5.44101">
        <ele>921</ele>
      </trkpt>
      <trkpt lat="45.16802" lon="5.44106">
        <ele>920.4</ele>
      </trkpt>
      <trkpt lat="45.16805" lon="5.4411">
        <ele>920.1</ele>
      </trkpt>
      <trkpt lat="45.16809" lon="5.44115">
        <ele>919.8</ele>
      </trkpt>
      <trkpt lat="45.16812" lon="5.4412">
        <ele>919.5</ele>
      </trkpt>
      <trkpt lat="45.16814" lon="5.44125">
        <ele>919</ele>
      </trkpt>
      <trkpt lat="45.16816" lon="5.44132">
        <ele>918.3</ele>
      </trkpt>
      <trkpt lat="45.16818" lon="5.4414">
        <ele>917.5</ele>
      </trkpt>
      <trkpt lat="45.1682" lon="5.44148">
        <ele>916.5</ele>
      </trkpt>
      <trkpt lat="45.16822" lon="5.44156">
        <ele>915.7</ele>
      </trkpt>
      <trkpt lat="45.16826" lon="5.44167">
        <ele>915.3</ele>
      </trkpt>
      <trkpt lat="45.16834" lon="5.44198">
        <ele>913.7</ele>
      </trkpt>
      <trkpt lat="45.16835" lon="5.44203">
        <ele>913.4</ele>
      </trkpt>
      <trkpt lat="45.16829" lon="5.44196">
        <ele>911.9</ele>
      </trkpt>
      <trkpt lat="45.16824" lon="5.44189">
        <ele>910.9</ele>
      </trkpt>
      <trkpt lat="45.1682" lon="5.44184">
        <ele>910.1</ele>
      </trkpt>
      <trkpt lat="45.16814" lon="5.44178">
        <ele>908.8</ele>
      </trkpt>
      <trkpt lat="45.16809" lon="5.44171">
        <ele>908.3</ele>
      </trkpt>
      <trkpt lat="45.16805" lon="5.44166">
        <ele>908</ele>
      </trkpt>
      <trkpt lat="45.168" lon="5.4416">
        <ele>908.2</ele>
      </trkpt>
      <trkpt lat="45.16796" lon="5.44155">
        <ele>908.5</ele>
      </trkpt>
      <trkpt lat="45.16792" lon="5.4415">
        <ele>908.9</ele>
      </trkpt>
      <trkpt lat="45.16787" lon="5.44147">
        <ele>908.6</ele>
      </trkpt>
      <trkpt lat="45.16776" lon="5.44144">
        <ele>907</ele>
        <extensions>
          <visugpx:TrkExtension xmlns:visugpx="https://www.visugpx.com/editgpx/">
            <visugpx:node>3</visugpx:node>
            </visugpx:TrkExtension>
        </extensions>
      </trkpt>
      <trkpt lat="45.16772" lon="5.44143">
        <ele>906.6</ele>
      </trkpt>
      <trkpt lat="45.16755" lon="5.44145">
        <ele>902.7</ele>
      </trkpt>
      <trkpt lat="45.16741" lon="5.44152">
        <ele>897.5</ele>
      </trkpt>
      <trkpt lat="45.16731" lon="5.44155">
        <ele>894.4</ele>
      </trkpt>
      <trkpt lat="45.16721" lon="5.44147">
        <ele>895.5</ele>
      </trkpt>
      <trkpt lat="45.16706" lon="5.44135">
        <ele>896.9</ele>
      </trkpt>
      <trkpt lat="45.1668" lon="5.44124">
        <ele>894.2</ele>
      </trkpt>
      <trkpt lat="45.16654" lon="5.44115">
        <ele>890</ele>
      </trkpt>
      <trkpt lat="45.16617" lon="5.44112">
        <ele>880.4</ele>
      </trkpt>
      <trkpt lat="45.166" lon="5.4411">
        <ele>876.6</ele>
      </trkpt>
      <trkpt lat="45.16567" lon="5.44103">
        <ele>871.4</ele>
      </trkpt>
      <trkpt lat="45.16558" lon="5.44095">
        <ele>872.3</ele>
      </trkpt>
      <trkpt lat="45.16545" lon="5.44084">
        <ele>873.1</ele>
      </trkpt>
      <trkpt lat="45.16537" lon="5.44081">
        <ele>872.1</ele>
      </trkpt>
      <trkpt lat="45.16516" lon="5.44083">
        <ele>867</ele>
      </trkpt>
      <trkpt lat="45.16495" lon="5.44075">
        <ele>865.9</ele>
      </trkpt>
      <trkpt lat="45.1648" lon="5.4407">
        <ele>865.1</ele>
      </trkpt>
      <trkpt lat="45.16452" lon="5.44072">
        <ele>860.4</ele>
      </trkpt>
      <trkpt lat="45.1644" lon="5.44075">
        <ele>857.6</ele>
      </trkpt>
      <trkpt lat="45.16438" lon="5.44085">
        <ele>854.4</ele>
      </trkpt>
      <trkpt lat="45.1645" lon="5.44106">
        <ele>850.3</ele>
      </trkpt>
      <trkpt lat="45.16456" lon="5.44111">
        <ele>849.7</ele>
      </trkpt>
      <trkpt lat="45.16466" lon="5.44122">
        <ele>848</ele>
      </trkpt>
      <trkpt lat="45.16471" lon="5.4413">
        <ele>846.4</ele>
      </trkpt>
      <trkpt lat="45.16479" lon="5.44147">
        <ele>842.4</ele>
      </trkpt>
      <trkpt lat="45.16494" lon="5.44187">
        <ele>833.2</ele>
      </trkpt>
      <trkpt lat="45.1649" lon="5.44205">
        <ele>827.9</ele>
      </trkpt>
      <trkpt lat="45.1649" lon="5.44226">
        <ele>822</ele>
      </trkpt>
      <trkpt lat="45.16494" lon="5.44255">
        <ele>815.2</ele>
      </trkpt>
      <trkpt lat="45.16518" lon="5.44287">
        <ele>811</ele>
      </trkpt>
      <trkpt lat="45.16538" lon="5.44316">
        <ele>808.4</ele>
      </trkpt>
      <trkpt lat="45.16539" lon="5.44327">
        <ele>807.5</ele>
      </trkpt>
      <trkpt lat="45.16536" lon="5.44338">
        <ele>806</ele>
      </trkpt>
      <trkpt lat="45.16521" lon="5.44367">
        <ele>801.7</ele>
      </trkpt>
      <trkpt lat="45.16506" lon="5.44393">
        <ele>799.7</ele>
      </trkpt>
      <trkpt lat="45.16485" lon="5.444">
        <ele>797.3</ele>
      </trkpt>
      <trkpt lat="45.16453" lon="5.44394">
        <ele>793.4</ele>
      </trkpt>
      <trkpt lat="45.16405" lon="5.44384">
        <ele>789.1</ele>
      </trkpt>
      <trkpt lat="45.16367" lon="5.44381">
        <ele>786.3</ele>
      </trkpt>
      <trkpt lat="45.16356" lon="5.44385">
        <ele>786.2</ele>
      </trkpt>
      <trkpt lat="45.16346" lon="5.44387">
        <ele>786.1</ele>
      </trkpt>
      <trkpt lat="45.16348" lon="5.44379">
        <ele>784.9</ele>
      </trkpt>
      <trkpt lat="45.16349" lon="5.44372">
        <ele>783.9</ele>
      </trkpt>
      <trkpt lat="45.16348" lon="5.44365">
        <ele>782.7</ele>
      </trkpt>
      <trkpt lat="45.16345" lon="5.44358">
        <ele>781.7</ele>
      </trkpt>
      <trkpt lat="45.16343" lon="5.4435">
        <ele>781</ele>
      </trkpt>
      <trkpt lat="45.16338" lon="5.44344">
        <ele>780.2</ele>
      </trkpt>
      <trkpt lat="45.16331" lon="5.44337">
        <ele>779</ele>
      </trkpt>
      <trkpt lat="45.16308" lon="5.44335">
        <ele>776.4</ele>
      </trkpt>
      <trkpt lat="45.16291" lon="5.44324">
        <ele>774.3</ele>
        <extensions>
          <visugpx:TrkExtension xmlns:visugpx="https://www.visugpx.com/editgpx/">
            <visugpx:node>4</visugpx:node>
            </visugpx:TrkExtension>
        </extensions>
      </trkpt>
      <trkpt lat="45.16286" lon="5.44321">
        <ele>773.6</ele>
      </trkpt>
      <trkpt lat="45.1626" lon="5.443">
        <ele>770</ele>
      </trkpt>
      <trkpt lat="45.16234" lon="5.44288">
        <ele>767.4</ele>
      </trkpt>
      <trkpt lat="45.1619" lon="5.44289">
        <ele>760.9</ele>
      </trkpt>
      <trkpt lat="45.16168" lon="5.44288">
        <ele>758.3</ele>
      </trkpt>
      <trkpt lat="45.16148" lon="5.4428">
        <ele>754.7</ele>
      </trkpt>
      <trkpt lat="45.16128" lon="5.44256">
        <ele>752.1</ele>
      </trkpt>
      <trkpt lat="45.16101" lon="5.44241">
        <ele>748.4</ele>
      </trkpt>
      <trkpt lat="45.1607" lon="5.4422">
        <ele>742.1</ele>
      </trkpt>
      <trkpt lat="45.16029" lon="5.4419">
        <ele>738.7</ele>
      </trkpt>
      <trkpt lat="45.16009" lon="5.44183">
        <ele>736.4</ele>
      </trkpt>
      <trkpt lat="45.15966" lon="5.44169">
        <ele>730.6</ele>
      </trkpt>
      <trkpt lat="45.15948" lon="5.44167">
        <ele>726</ele>
      </trkpt>
      <trkpt lat="45.15901" lon="5.4414">
        <ele>716.8</ele>
      </trkpt>
      <trkpt lat="45.1586" lon="5.44116">
        <ele>711.8</ele>
      </trkpt>
      <trkpt lat="45.15818" lon="5.44091">
        <ele>702.6</ele>
      </trkpt>
      <trkpt lat="45.15803" lon="5.44089">
        <ele>700</ele>
        <extensions>
          <visugpx:TrkExtension xmlns:visugpx="https://www.visugpx.com/editgpx/">
            <visugpx:node>5</visugpx:node>
            </visugpx:TrkExtension>
        </extensions>
      </trkpt>
      <trkpt lat="45.15795" lon="5.44088">
        <ele>700.3</ele>
      </trkpt>
      <trkpt lat="45.15791" lon="5.44087">
        <ele>700.3</ele>
      </trkpt>
      <trkpt lat="45.15785" lon="5.44082">
        <ele>699.6</ele>
      </trkpt>
      <trkpt lat="45.15775" lon="5.44072">
        <ele>698.1</ele>
      </trkpt>
      <trkpt lat="45.15766" lon="5.44061">
        <ele>695.9</ele>
      </trkpt>
      <trkpt lat="45.15754" lon="5.4405">
        <ele>693.7</ele>
      </trkpt>
      <trkpt lat="45.1573" lon="5.44026">
        <ele>688.1</ele>
      </trkpt>
      <trkpt lat="45.1571" lon="5.44006">
        <ele>684.6</ele>
      </trkpt>
      <trkpt lat="45.1569" lon="5.43985">
        <ele>682</ele>
      </trkpt>
      <trkpt lat="45.15677" lon="5.4397">
        <ele>680.7</ele>
      </trkpt>
      <trkpt lat="45.1567" lon="5.43964">
        <ele>679.9</ele>
      </trkpt>
      <trkpt lat="45.15663" lon="5.43958">
        <ele>679.2</ele>
      </trkpt>
      <trkpt lat="45.15661" lon="5.43953">
        <ele>679.1</ele>
      </trkpt>
      <trkpt lat="45.15658" lon="5.43948">
        <ele>678.7</ele>
      </trkpt>
      <trkpt lat="45.15643" lon="5.4393">
        <ele>676.4</ele>
      </trkpt>
      <trkpt lat="45.15635" lon="5.4392">
        <ele>674.8</ele>
      </trkpt>
      <trkpt lat="45.15636" lon="5.43913">
        <ele>674.5</ele>
      </trkpt>
      <trkpt lat="45.15637" lon="5.43907">
        <ele>674.4</ele>
      </trkpt>
      <trkpt lat="45.15637" lon="5.439">
        <ele>674.1</ele>
      </trkpt>
      <trkpt lat="45.15638" lon="5.43881">
        <ele>673.8</ele>
      </trkpt>
      <trkpt lat="45.15637" lon="5.4386">
        <ele>673.4</ele>
      </trkpt>
      <trkpt lat="45.15633" lon="5.43841">
        <ele>672.8</ele>
      </trkpt>
      <trkpt lat="45.1563" lon="5.43817">
        <ele>672.1</ele>
      </trkpt>
      <trkpt lat="45.15628" lon="5.43798">
        <ele>671.6</ele>
      </trkpt>
      <trkpt lat="45.15628" lon="5.43776">
        <ele>673.6</ele>
      </trkpt>
      <trkpt lat="45.15627" lon="5.43748">
        <ele>674.7</ele>
      </trkpt>
      <trkpt lat="45.15627" lon="5.43717">
        <ele>673.4</ele>
      </trkpt>
      <trkpt lat="45.15626" lon="5.43703">
        <ele>668.9</ele>
      </trkpt>
      <trkpt lat="45.15626" lon="5.43698">
        <ele>667.7</ele>
        <extensions>
          <visugpx:TrkExtension xmlns:visugpx="https://www.visugpx.com/editgpx/">
            <visugpx:node>6</visugpx:node>
            </visugpx:TrkExtension>
        </extensions>
      </trkpt>
      <trkpt lat="45.15626" lon="5.43697">
        <ele>667.5</ele>
      </trkpt>
      <trkpt lat="45.15627" lon="5.43695">
        <ele>667.9</ele>
      </trkpt>
      <trkpt lat="45.15628" lon="5.43691">
        <ele>666.5</ele>
      </trkpt>
      <trkpt lat="45.1563" lon="5.43689">
        <ele>666.8</ele>
      </trkpt>
      <trkpt lat="45.15636" lon="5.43685">
        <ele>668.5</ele>
      </trkpt>
      <trkpt lat="45.15655" lon="5.43682">
        <ele>676.4</ele>
      </trkpt>
      <trkpt lat="45.15673" lon="5.43685">
        <ele>685.9</ele>
      </trkpt>
      <trkpt lat="45.15684" lon="5.43688">
        <ele>689.6</ele>
      </trkpt>
      <trkpt lat="45.15694" lon="5.43694">
        <ele>698.3</ele>
      </trkpt>
      <trkpt lat="45.157" lon="5.43698">
        <ele>701</ele>
      </trkpt>
      <trkpt lat="45.15704" lon="5.43699">
        <ele>700.9</ele>
      </trkpt>
      <trkpt lat="45.15714" lon="5.437">
        <ele>699.1</ele>
      </trkpt>
      <trkpt lat="45.15729" lon="5.43699">
        <ele>691.8</ele>
      </trkpt>
      <trkpt lat="45.15736" lon="5.43699">
        <ele>688.4</ele>
      </trkpt>
      <trkpt lat="45.15745" lon="5.43704">
        <ele>692.2</ele>
      </trkpt>
      <trkpt lat="45.15755" lon="5.4371">
        <ele>694.7</ele>
      </trkpt>
      <trkpt lat="45.15767" lon="5.43713">
        <ele>686.8</ele>
      </trkpt>
      <trkpt lat="45.15782" lon="5.43714">
        <ele>674.4</ele>
      </trkpt>
      <trkpt lat="45.15797" lon="5.43714">
        <ele>666.8</ele>
      </trkpt>
      <trkpt lat="45.15828" lon="5.43711">
        <ele>662.1</ele>
      </trkpt>
      <trkpt lat="45.15847" lon="5.43706">
        <ele>663.4</ele>
      </trkpt>
      <trkpt lat="45.15859" lon="5.43699">
        <ele>661.9</ele>
      </trkpt>
      <trkpt lat="45.15874" lon="5.43685">
        <ele>657.9</ele>
      </trkpt>
      <trkpt lat="45.15886" lon="5.43672">
        <ele>654.2</ele>
      </trkpt>
      <trkpt lat="45.15906" lon="5.43653">
        <ele>651.4</ele>
      </trkpt>
      <trkpt lat="45.15922" lon="5.43639">
        <ele>650.2</ele>
      </trkpt>
      <trkpt lat="45.159" lon="5.4364">
        <ele>642</ele>
        <extensions>
          <visugpx:TrkExtension xmlns:visugpx="https://www.visugpx.com/editgpx/">
            <visugpx:node>7</visugpx:node>
            </visugpx:TrkExtension>
        </extensions>
      </trkpt>
      <trkpt lat="45.15892" lon="5.4364">
        <ele>638.8</ele>
      </trkpt>
      <trkpt lat="45.15897" lon="5.43627">
        <ele>634.1</ele>
      </trkpt>
      <trkpt lat="45.15975" lon="5.43562">
        <ele>629.9</ele>
      </trkpt>
      <trkpt lat="45.16022" lon="5.43532">
        <ele>632.7</ele>
      </trkpt>
      <trkpt lat="45.16034" lon="5.4347">
        <ele>612.7</ele>
      </trkpt>
      <trkpt lat="45.16034" lon="5.43468">
        <ele>612.1</ele>
      </trkpt>
      <trkpt lat="45.16041" lon="5.43414">
        <ele>596.9</ele>
      </trkpt>
      <trkpt lat="45.1607" lon="5.43362">
        <ele>591.5</ele>
      </trkpt>
      <trkpt lat="45.16096" lon="5.43299">
        <ele>581.6</ele>
      </trkpt>
      <trkpt lat="45.16103" lon="5.43293">
        <ele>582.1</ele>
      </trkpt>
      <trkpt lat="45.16111" lon="5.43285">
        <ele>582.3</ele>
      </trkpt>
      <trkpt lat="45.16122" lon="5.43276">
        <ele>583.7</ele>
      </trkpt>
      <trkpt lat="45.16128" lon="5.43269">
        <ele>583.8</ele>
      </trkpt>
      <trkpt lat="45.16135" lon="5.43255">
        <ele>582.1</ele>
      </trkpt>
      <trkpt lat="45.16141" lon="5.43242">
        <ele>580.2</ele>
      </trkpt>
      <trkpt lat="45.16146" lon="5.4323">
        <ele>578.3</ele>
      </trkpt>
      <trkpt lat="45.1615" lon="5.43222">
        <ele>577.3</ele>
      </trkpt>
      <trkpt lat="45.16153" lon="5.43215">
        <ele>576.4</ele>
      </trkpt>
      <trkpt lat="45.16156" lon="5.43208">
        <ele>575.4</ele>
      </trkpt>
      <trkpt lat="45.16159" lon="5.43202">
        <ele>574.6</ele>
      </trkpt>
      <trkpt lat="45.16162" lon="5.43196">
        <ele>573.8</ele>
      </trkpt>
      <trkpt lat="45.16167" lon="5.43186">
        <ele>572.7</ele>
      </trkpt>
      <trkpt lat="45.16171" lon="5.43176">
        <ele>571.5</ele>
      </trkpt>
      <trkpt lat="45.16175" lon="5.43165">
        <ele>569.8</ele>
      </trkpt>
      <trkpt lat="45.16182" lon="5.43151">
        <ele>568.3</ele>
      </trkpt>
      <trkpt lat="45.16186" lon="5.43143">
        <ele>567.6</ele>
      </trkpt>
      <trkpt lat="45.16191" lon="5.43135">
        <ele>567.1</ele>
      </trkpt>
      <trkpt lat="45.16194" lon="5.43127">
        <ele>565.5</ele>
      </trkpt>
      <trkpt lat="45.16196" lon="5.43119">
        <ele>563.6</ele>
      </trkpt>
      <trkpt lat="45.16198" lon="5.43112">
        <ele>562</ele>
      </trkpt>
      <trkpt lat="45.16201" lon="5.43105">
        <ele>561.1</ele>
      </trkpt>
      <trkpt lat="45.16204" lon="5.43098">
        <ele>560.2</ele>
      </trkpt>
      <trkpt lat="45.16207" lon="5.43091">
        <ele>559.4</ele>
      </trkpt>
      <trkpt lat="45.16211" lon="5.43083">
        <ele>558.6</ele>
      </trkpt>
      <trkpt lat="45.16214" lon="5.43075">
        <ele>557.3</ele>
      </trkpt>
      <trkpt lat="45.16218" lon="5.43067">
        <ele>556.3</ele>
      </trkpt>
      <trkpt lat="45.16222" lon="5.4306">
        <ele>555.5</ele>
      </trkpt>
      <trkpt lat="45.16225" lon="5.43053">
        <ele>554.5</ele>
      </trkpt>
      <trkpt lat="45.16229" lon="5.43043">
        <ele>553</ele>
      </trkpt>
      <trkpt lat="45.16233" lon="5.43032">
        <ele>551.1</ele>
      </trkpt>
      <trkpt lat="45.16238" lon="5.43022">
        <ele>550</ele>
      </trkpt>
      <trkpt lat="45.16242" lon="5.43012">
        <ele>548.6</ele>
      </trkpt>
      <trkpt lat="45.16245" lon="5.43002">
        <ele>546.7</ele>
      </trkpt>
      <trkpt lat="45.1625" lon="5.42992">
        <ele>545.4</ele>
      </trkpt>
      <trkpt lat="45.16254" lon="5.42983">
        <ele>544.4</ele>
      </trkpt>
      <trkpt lat="45.16258" lon="5.42978">
        <ele>544.7</ele>
      </trkpt>
      <trkpt lat="45.1626" lon="5.42974">
        <ele>544.3</ele>
      </trkpt>
      <trkpt lat="45.16265" lon="5.42962">
        <ele>543</ele>
      </trkpt>
      <trkpt lat="45.1627" lon="5.42951">
        <ele>541.9</ele>
      </trkpt>
      <trkpt lat="45.16275" lon="5.42942">
        <ele>541.2</ele>
      </trkpt>
      <trkpt lat="45.1628" lon="5.42932">
        <ele>540.5</ele>
      </trkpt>
      <trkpt lat="45.16285" lon="5.42922">
        <ele>540</ele>
      </trkpt>
      <trkpt lat="45.1629" lon="5.42913">
        <ele>539.5</ele>
      </trkpt>
      <trkpt lat="45.16294" lon="5.42903">
        <ele>538.1</ele>
      </trkpt>
      <trkpt lat="45.16298" lon="5.42896">
        <ele>537.4</ele>
        <extensions>
          <visugpx:TrkExtension xmlns:visugpx="https://www.visugpx.com/editgpx/">
            <visugpx:node>8</visugpx:node>
            </visugpx:TrkExtension>
        </extensions>
      </trkpt>
      <trkpt lat="45.16299" lon="5.42893">
        <ele>536.8</ele>
      </trkpt>
      <trkpt lat="45.16305" lon="5.42883">
        <ele>535.9</ele>
      </trkpt>
      <trkpt lat="45.1631" lon="5.42872">
        <ele>534.7</ele>
      </trkpt>
      <trkpt lat="45.16315" lon="5.4286">
        <ele>533.1</ele>
      </trkpt>
      <trkpt lat="45.1632" lon="5.42848">
        <ele>531.7</ele>
      </trkpt>
      <trkpt lat="45.16325" lon="5.42837">
        <ele>530.5</ele>
      </trkpt>
      <trkpt lat="45.1633" lon="5.42826">
        <ele>529.3</ele>
      </trkpt>
      <trkpt lat="45.16335" lon="5.42817">
        <ele>528.5</ele>
      </trkpt>
      <trkpt lat="45.1634" lon="5.42808">
        <ele>527.9</ele>
      </trkpt>
      <trkpt lat="45.16343" lon="5.42801">
        <ele>527.3</ele>
      </trkpt>
      <trkpt lat="45.16344" lon="5.42798">
        <ele>527</ele>
      </trkpt>
      <trkpt lat="45.16349" lon="5.42786">
        <ele>526</ele>
      </trkpt>
      <trkpt lat="45.16354" lon="5.42775">
        <ele>525.2</ele>
      </trkpt>
      <trkpt lat="45.16359" lon="5.42763">
        <ele>523.9</ele>
      </trkpt>
      <trkpt lat="45.16362" lon="5.42752">
        <ele>522.1</ele>
      </trkpt>
      <trkpt lat="45.16366" lon="5.42733">
        <ele>519.4</ele>
      </trkpt>
      <trkpt lat="45.16433" lon="5.42525">
        <ele>478.4</ele>
      </trkpt>
      <trkpt lat="45.16536" lon="5.42384">
        <ele>446</ele>
      </trkpt>
      <trkpt lat="45.16514" lon="5.42381">
        <ele>439.2</ele>
      </trkpt>
      <trkpt lat="45.16523" lon="5.42362">
        <ele>431.7</ele>
      </trkpt>
      <trkpt lat="45.16552" lon="5.42319">
        <ele>417.6</ele>
      </trkpt>
      <trkpt lat="45.16574" lon="5.42276">
        <ele>408.2</ele>
      </trkpt>
      <trkpt lat="45.16556" lon="5.42275">
        <ele>404.1</ele>
      </trkpt>
      <trkpt lat="45.166" lon="5.42225">
        <ele>403.4</ele>
      </trkpt>
      <trkpt lat="45.16616" lon="5.42166">
        <ele>386.9</ele>
      </trkpt>
      <trkpt lat="45.16651" lon="5.42104">
        <ele>384.1</ele>
      </trkpt>
      <trkpt lat="45.16678" lon="5.42066">
        <ele>384.9</ele>
      </trkpt>
      <trkpt lat="45.16691" lon="5.42046">
        <ele>379.1</ele>
      </trkpt>
      <trkpt lat="45.16699" lon="5.42038">
        <ele>378.9</ele>
        <extensions>
          <visugpx:TrkExtension xmlns:visugpx="https://www.visugpx.com/editgpx/">
            <visugpx:node>9</visugpx:node>
            </visugpx:TrkExtension>
        </extensions>
      </trkpt>
      <trkpt lat="45.16702" lon="5.42035">
        <ele>379.1</ele>
      </trkpt>
      <trkpt lat="45.16722" lon="5.42021">
        <ele>382.3</ele>
      </trkpt>
      <trkpt lat="45.16736" lon="5.42015">
        <ele>392.3</ele>
      </trkpt>
      <trkpt lat="45.16765" lon="5.42002">
        <ele>406.8</ele>
      </trkpt>
      <trkpt lat="45.1677" lon="5.41991">
        <ele>400.8</ele>
      </trkpt>
      <trkpt lat="45.16774" lon="5.4198">
        <ele>393.2</ele>
      </trkpt>
      <trkpt lat="45.16787" lon="5.41962">
        <ele>389.8</ele>
      </trkpt>
      <trkpt lat="45.16789" lon="5.41949">
        <ele>380.7</ele>
      </trkpt>
      <trkpt lat="45.16791" lon="5.41932">
        <ele>371</ele>
      </trkpt>
      <trkpt lat="45.16794" lon="5.41913">
        <ele>362.5</ele>
      </trkpt>
      <trkpt lat="45.16796" lon="5.41893">
        <ele>355.8</ele>
      </trkpt>
      <trkpt lat="45.16796" lon="5.41878">
        <ele>350.8</ele>
      </trkpt>
      <trkpt lat="45.16795" lon="5.41862">
        <ele>345.1</ele>
      </trkpt>
      <trkpt lat="45.16795" lon="5.4185">
        <ele>344.5</ele>
      </trkpt>
      <trkpt lat="45.16791" lon="5.41836">
        <ele>339.4</ele>
      </trkpt>
      <trkpt lat="45.16783" lon="5.41821">
        <ele>330.4</ele>
      </trkpt>
      <trkpt lat="45.16775" lon="5.41806">
        <ele>322.2</ele>
      </trkpt>
      <trkpt lat="45.16768" lon="5.41793">
        <ele>323.9</ele>
      </trkpt>
      <trkpt lat="45.16761" lon="5.41776">
        <ele>322.2</ele>
      </trkpt>
      <trkpt lat="45.16756" lon="5.41758">
        <ele>318.4</ele>
      </trkpt>
      <trkpt lat="45.16754" lon="5.41743">
        <ele>315.2</ele>
      </trkpt>
      <trkpt lat="45.16755" lon="5.41732">
        <ele>315</ele>
      </trkpt>
      <trkpt lat="45.16756" lon="5.41727">
        <ele>315.5</ele>
      </trkpt>
      <trkpt lat="45.16761" lon="5.41708">
        <ele>317</ele>
      </trkpt>
      <trkpt lat="45.16767" lon="5.41688">
        <ele>313.4</ele>
      </trkpt>
      <trkpt lat="45.16768" lon="5.41683">
        <ele>312.5</ele>
      </trkpt>
      <trkpt lat="45.16778" lon="5.41658">
        <ele>301.4</ele>
      </trkpt>
      <trkpt lat="45.16791" lon="5.41621">
        <ele>301.5</ele>
      </trkpt>
      <trkpt lat="45.16801" lon="5.41592">
        <ele>299.2</ele>
      </trkpt>
      <trkpt lat="45.16801" lon="5.41585">
        <ele>298.5</ele>
      </trkpt>
      <trkpt lat="45.168" lon="5.41577">
        <ele>298.5</ele>
      </trkpt>
      <trkpt lat="45.16798" lon="5.41566">
        <ele>298.9</ele>
      </trkpt>
      <trkpt lat="45.16797" lon="5.41557">
        <ele>299.1</ele>
      </trkpt>
      <trkpt lat="45.16798" lon="5.41549">
        <ele>298.8</ele>
      </trkpt>
      <trkpt lat="45.168" lon="5.41541">
        <ele>298.1</ele>
      </trkpt>
      <trkpt lat="45.16804" lon="5.41533">
        <ele>296.6</ele>
      </trkpt>
      <trkpt lat="45.16809" lon="5.41525">
        <ele>296.7</ele>
      </trkpt>
      <trkpt lat="45.16814" lon="5.41518">
        <ele>296.8</ele>
      </trkpt>
      <trkpt lat="45.1682" lon="5.41508">
        <ele>295.4</ele>
      </trkpt>
      <trkpt lat="45.16825" lon="5.41499">
        <ele>293.2</ele>
      </trkpt>
      <trkpt lat="45.16836" lon="5.41484">
        <ele>290.8</ele>
      </trkpt>
      <trkpt lat="45.16845" lon="5.41469">
        <ele>289</ele>
      </trkpt>
      <trkpt lat="45.16855" lon="5.41451">
        <ele>286.1</ele>
      </trkpt>
      <trkpt lat="45.1686" lon="5.41438">
        <ele>284</ele>
      </trkpt>
      <trkpt lat="45.16865" lon="5.41423">
        <ele>282.7</ele>
      </trkpt>
      <trkpt lat="45.16868" lon="5.41413">
        <ele>282.2</ele>
      </trkpt>
      <trkpt lat="45.1687" lon="5.41407">
        <ele>282.1</ele>
      </trkpt>
      <trkpt lat="45.16872" lon="5.41403">
        <ele>282.3</ele>
      </trkpt>
      <trkpt lat="45.16875" lon="5.41391">
        <ele>282.2</ele>
      </trkpt>
      <trkpt lat="45.16877" lon="5.41383">
        <ele>282.3</ele>
      </trkpt>
      <trkpt lat="45.16879" lon="5.41369">
        <ele>282.2</ele>
      </trkpt>
      <trkpt lat="45.16882" lon="5.41355">
        <ele>281.9</ele>
      </trkpt>
      <trkpt lat="45.16884" lon="5.41346">
        <ele>281.3</ele>
      </trkpt>
      <trkpt lat="45.16886" lon="5.4134">
        <ele>281.1</ele>
      </trkpt>
      <trkpt lat="45.16892" lon="5.41333">
        <ele>281.2</ele>
      </trkpt>
      <trkpt lat="45.169" lon="5.41326">
        <ele>280.4</ele>
      </trkpt>
      <trkpt lat="45.16916" lon="5.41314">
        <ele>281.1</ele>
      </trkpt>
      <trkpt lat="45.16925" lon="5.41305">
        <ele>280.2</ele>
      </trkpt>
      <trkpt lat="45.16928" lon="5.41304">
        <ele>280.2</ele>
      </trkpt>
      <trkpt lat="45.16936" lon="5.41315">
        <ele>281.6</ele>
      </trkpt>
      <trkpt lat="45.16942" lon="5.41324">
        <ele>282.4</ele>
      </trkpt>
      <trkpt lat="45.16947" lon="5.41304">
        <ele>280.9</ele>
      </trkpt>
      <trkpt lat="45.16953" lon="5.41287">
        <ele>280.2</ele>
      </trkpt>
      <trkpt lat="45.1696" lon="5.41269">
        <ele>279</ele>
      </trkpt>
      <trkpt lat="45.16967" lon="5.41256">
        <ele>278</ele>
      </trkpt>
      <trkpt lat="45.16974" lon="5.41246">
        <ele>277.6</ele>
      </trkpt>
      <trkpt lat="45.16985" lon="5.41233">
        <ele>276.7</ele>
      </trkpt>
      <trkpt lat="45.16994" lon="5.41219">
        <ele>276.5</ele>
      </trkpt>
      <trkpt lat="45.17004" lon="5.41204">
        <ele>276.3</ele>
      </trkpt>
      <trkpt lat="45.17017" lon="5.41185">
        <ele>275.5</ele>
      </trkpt>
      <trkpt lat="45.17023" lon="5.41181">
        <ele>275.4</ele>
      </trkpt>
      <trkpt lat="45.17035" lon="5.41182">
        <ele>275.4</ele>
      </trkpt>
      <trkpt lat="45.17045" lon="5.41177">
        <ele>275.1</ele>
      </trkpt>
      <trkpt lat="45.17052" lon="5.41185">
        <ele>275.1</ele>
      </trkpt>
      <trkpt lat="45.17048" lon="5.41193">
        <ele>275.3</ele>
      </trkpt>
      <trkpt lat="45.1707" lon="5.41232">
        <ele>275.7</ele>
        <extensions>
          <visugpx:TrkExtension xmlns:visugpx="https://www.visugpx.com/editgpx/">
            <visugpx:node>10</visugpx:node>
            </visugpx:TrkExtension>
        </extensions>
      </trkpt>
    </trkseg>
  </trk>
</gpx>